SondeTracker

Meteorological Radiosondes Database

Operations
Radiosondes Table of last 48 hours (598)
Number Type Last Frame [UTC] φ λ Course Speed Altitude Climbing Launch Site Frequency Nearest City Distance from QTH Status
U3835293 RS41 2022-12-07 15:05:29 50.3858 7.79658 121 ° 33 km/h 700 m -3.2 m/s Jülich (DE) 401.00 MHz Koblenz (DE) 0.00 km UNKNOWN
U4144990 RS41 2022-12-07 14:59:55 40.4597 17.976 117 ° 13 km/h 2068 m -5.3 m/s Potenza (IT) 404.00 MHz San Pietro Vernotico (IT) 0.00 km UNKNOWN
U4054638 RS41 2022-12-07 14:49:48 59.2706 15.2112 173 ° 13 km/h 755 m -11.3 m/s Karlskoga (SE) 404.000 MHz Örebro (SE) 0.00 km UNKNOWN
U2010485 RS41 2022-12-07 14:40:37 45.5539 15.782 171 ° 13 km/h 185 m -1.9 m/s Udine-Rivolto (IT) 404.00 MHz Lasinja (HR) 0.00 km UNKNOWN
U3141504 RS41-SGP 2022-12-07 14:27:57 -22.4987 -46.4803 115 ° 13 km/h 1257 m -2.8 m/s São Paulo (BR) 405.301 MHz Mogi Guaçu (BR) 0.00 km UNKNOWN
T4150898 RS41 2022-12-07 14:26:08 44.0533 10.2691 161 ° 6 km/h 1801 m -2.4 m/s Cuneo-Levaldigi (IT) 403.70 MHz Seravezza (IT) 0.00 km UNKNOWN
U1450563 RS41 2022-12-07 14:25:14 47.3968 14.2355 88 ° 33 km/h 2168 m -2.5 m/s München (DE) 402.30 MHz Irdning (AT) 0.00 km UNKNOWN
D22037103 DFM17 2022-12-07 14:24:22 36.893 -77.5061 63 ° 46 km/h 2589 m -2.4 m/s Blacksburg [VA] (US) 404.010 MHz Petersburg [VA] (US) 0.00 km UNKNOWN
S2950357 RS41 2022-12-07 14:21:10 43.2855 -7.2463 322 ° 11 km/h 1122 m -3.0 m/s A Coruña (ES) 404.001 MHz Castro de Rey (ES) 0.00 km UNKNOWN
D22036591 DFM17 2022-12-07 14:18:47 41.5653 -95.1337 91 ° 111 km/h 6805 m -2.2 m/s North Platte [NE] (US) 403.010 MHz Council Bluffs [IA] (US) 0.00 km UNKNOWN
T4320398 RS41-SG 2022-12-07 14:18:37 50.9547 -9.86875 165 ° 35 km/h 2361 m -2.3 m/s Cahersiveen (IE) 405.30 MHz Skibbereen (IE) 0.00 km LOST
D22037296 DFM17 2022-12-07 14:17:53 32.8605 -84.3204 103 ° 74 km/h 7401 m -6.8 m/s Alabaster [AL] (US) 402.010 MHz Thomaston [GA] (US) 0.00 km UNKNOWN
U1460614 RS41 2022-12-07 14:13:56 52.8476 14.0937 95 ° 52 km/h 407 m -2.3 m/s Schleswig (DE) 402.50 MHz Cedynia (PL) 0.00 km UNKNOWN
T3040889 RS41 2022-12-07 14:11:53 45.0301 11.2978 91 ° 15 km/h 52 m -3.6 m/s Cameri (IT) 404.90 MHz Badia Polesine (IT) 0.00 km UNKNOWN
U0240785 RS41 2022-12-07 14:11:16 -27.0166 -48.3292 319 ° 20 km/h 24 m -9.1 m/s Florianopolis (BR) 405.300 MHz Balneário Camboriú (BR) 0.00 km LOST
ME15226F7 M10 2022-12-07 14:07:30 47.8701 -3.2828 227 ° 17 km/h 369 m -3.0 m/s Brest (FR) 404.000 MHz Plouay (FR) 0.00 km UNKNOWN
IMET51908 iMET 2022-12-07 14:03:57 49.8192 7.60759 112 ° 65 km/h 5930 m -19.3 m/s Elsenborn (BE) 402.998 MHz Bad Kreuznach (DE) 0.00 km UNKNOWN
U2420117 RS41 2022-12-07 14:03:29 49.4612 -4.1781 230 ° 28 km/h 452 m -5.5 m/s Camborne (GB) 403.30 MHz Saint-Pol-de-Léon (FR) 0.00 km LOST
ME9001252 M20 2022-12-07 13:56:18 47.8204 18.5587 113 ° 19 km/h 222 m -7.0 m/s Vienna (AT) 403.501 MHz Nyergesújfalu (HU) 0.00 km UNKNOWN
U2451246 RS41 2022-12-07 13:54:00 43.466 -74.9186 60 ° 76 km/h 4899 m -2.9 m/s Buffalo [NY] (US) 403.800 MHz Utica [NY] (US) 0.00 km UNKNOWN
U1830493 RS41 2022-12-07 13:52:30 52.314 13.5643 59 ° 20 km/h 75 m -2.4 m/s Sasel (DE) 404.90 MHz Königs Wusterhausen (DE) 0.00 km UNKNOWN
U0341077 RS41 2022-12-07 13:51:16 -24.7337 -49.1778 23 ° 57 km/h 6765 m -4.8 m/s Curitiba (BR) 403.001 MHz Almirante Tamandaré (BR) 0.00 km UNKNOWN
T3321014 RS41 2022-12-07 13:49:39 50.0844 5.96958 111 ° 20 km/h 592 m -4.6 m/s Uccle (BE) 403.500 MHz Wincrange (LU) 0.00 km FOUND
D22027240 DFM 2022-12-07 13:45:47 5.28496 99.927 192 ° 13 km/h 2573 m -9.1 m/s Bayan Lepas (MY) 400.170 MHz 0.00 km LOST
U3370024 RS41 2022-12-07 13:45:00 -22.8379 -51.1922 76 ° 11 km/h 844 m -3.0 m/s Londrina (BR) 403.001 MHz Cambé (BR) 0.00 km UNKNOWN
T3030268 RS41 2022-12-07 13:43:13 41.4312 14.6468 91 ° 24 km/h 2169 m -13.1 m/s Pratica di Mare (IT) 402.70 MHz Campobasso (IT) 0.00 km UNKNOWN
ME8F00684 M20 2022-12-07 13:43:00 44.5976 0.609231 101 ° 6 km/h 620 m -3.2 m/s Bordeaux (FR) 402.803 MHz Sainte-Livrade-sur-Lot (FR) 0.00 km UNKNOWN
U0150541 RS41 2022-12-07 13:43:00 37.3419 -5.47833 40 ° 30 km/h 2237 m -5.2 m/s Huelva (ES) 402.501 MHz Marchena (ES) 0.00 km UNKNOWN
U3035091 RS41-NG 2022-12-07 13:41:44 39.3797 -92.2482 80 ° 130 km/h 5856 m -4.6 m/s Topeka [KS] (US) 404.001 MHz Moberly [MO] (US) 0.00 km UNKNOWN
U1220725 RS41 2022-12-07 13:40:32 49.613 12.8046 92 ° 28 km/h 665 m -2.3 m/s Meiningen (DE) 402.30 MHz Stříbro (CZ) 0.00 km UNKNOWN
U1631183 RS41-SG 2022-12-07 13:40:00 34.8406 -119.232 127 ° 20 km/h 3071 m -13.1 m/s Santa Maria [CA] (US) 400.251 MHz Taft [CA] (US) 0.00 km UNKNOWN
S3710307 RS41 2022-12-07 13:38:03 48.7881 23.7779 63 ° 70 km/h 2996 m -17.7 m/s Poprad (SK) 400.601 MHz Staryi Mizun (UA) 0.00 km UNKNOWN
U4054648 RS41 2022-12-07 13:37:30 59.3999 14.97 175 ° 9 km/h 1412 m -13.8 m/s Karlskoga (SE) 401.000 MHz Nora (SE) 0.00 km UNKNOWN
T3120983 RS41 2022-12-07 13:36:30 37.8256 14.2691 153 ° 7 km/h 1504 m -4.7 m/s Trapani-Birgi (IT) 404.500 MHz Nicosia (IT) 0.00 km UNKNOWN
ME152296E M10 2022-12-07 13:35:59 41.6351 10.4939 121 ° 17 km/h 1495 m -8.0 m/s Ajaccio (FR) 401.003 MHz 0.00 km LOST
U1470832 RS41 2022-12-07 13:35:43 51.1134 17.4942 95 ° 44 km/h 320 m -1.8 m/s Lindenberg (DE) 405.100 MHz Bierutów (PL) 0.00 km UNKNOWN
T3010575 RS41 2022-12-07 13:35:26 51.9263 12.1894 102 ° 28 km/h 308 m -3.4 m/s Bergen (DE) 405.70 MHz Dessau (DE) 0.00 km UNKNOWN
ME9202666 M20 2022-12-07 13:33:32 44.3193 -0.280509 122 ° 13 km/h 1797 m -10.7 m/s Biscarrosse (FR) 405.600 MHz Langon (FR) 0.00 km UNKNOWN
ME8F02055 M20 2022-12-07 13:33:30 43.5367 5.9328 92 ° 37 km/h 3839 m -12.8 m/s Nîmes (FR) 402.003 MHz Saint-Maximin-la-Sainte-Baume (FR) 0.00 km UNKNOWN
D22042570 DFM 2022-12-07 13:32:52 36.1815 -83.7741 94 ° 109 km/h 6789 m -6.1 m/s MHz Knoxville [TN] (US) 0.00 km UNKNOWN
U0620423 RS41 2022-12-07 13:32:10 60.9653 24.5249 162 ° 4 km/h 112 m -13.8 m/s Jokioinen (FI) 403.000 MHz Hämeenlinna (FI) 0.00 km FOUND
U3360657 RS41 2022-12-07 13:31:51 52.4589 10.0545 104 ° 39 km/h 464 m -2.9 m/s Norderney (DE) 404.100 MHz Burgdorf (DE) 0.00 km FOUND
U2944765 RS41 2022-12-07 13:31:30 35.6415 -94.7009 62 ° 35 km/h 1654 m -7.7 m/s Norman [OK] (US) 404.201 MHz Van Buren [AR] (US) 0.00 km UNKNOWN
ME0A22448 M10 2022-12-07 13:31:20 48.2433 3.06854 211 ° 17 km/h 1076 m -12.0 m/s Trappes (FR) 400.999 MHz Sens (FR) 0.00 km UNKNOWN
ME9A03564 M20 2022-12-07 13:30:53 50.5514 19.8234 109 ° 50 km/h 1642 m -8.0 m/s Wrocław (PL) 403.000 MHz Szczekociny (PL) 0.00 km UNKNOWN
D22035326 DFM17 2022-12-07 13:30:44 47.1811 -115.786 114 ° 52 km/h 5737 m -9.8 m/s Spokane [WA] (US) 403.211 MHz 0.00 km UNKNOWN
S3150114 RS41 2022-12-07 13:29:54 46.3569 8.71716 119 ° 9 km/h 2847 m -7.7 m/s Payerne (CH) 404.497 MHz Biasca (CH) 0.00 km UNKNOWN
D22041977 DFM17 2022-12-07 13:24:13 45.191 -89.4691 74 ° 113 km/h 4953 m -7.8 m/s Chanhassen [MN] (US) 403.611 MHz Wausau [WI] (US) 0.00 km UNKNOWN
MTS98BFD3 MTS01 2022-12-07 13:23:36 40.9267 30.4115 60 ° 31 km/h 2248 m -9999.0 m/s Istanbul (TR) 401.001 MHz Ferizli (TR) 0.00 km UNKNOWN
D22037068 DFM17 2022-12-07 13:22:47 41.9414 -86.9718 237 ° 6 km/h 746 m -8.5 m/s Davenport [IA] (US) 403.410 MHz Michigan City [IN] (US) 0.00 km UNKNOWN
U1440314 RS41 2022-12-07 13:22:25 53.0153 16.6834 91 ° 20 km/h 145 m -8.3 m/s Greifswald (DE) 402.300 MHz Ujście (PL) 0.00 km FOUND
U0550584 RS41 2022-12-07 13:19:29 -29.5575 -50.6431 10 ° 6 km/h 790 m -8.2 m/s Porto Alegre (BR) 403.001 MHz Novo Hamburgo (BR) 0.00 km UNKNOWN
U2220412 RS41 2022-12-07 13:18:55 32.2614 -88.1546 82 ° 37 km/h 2003 m -8.9 m/s Jackson [MS] (US) 403.401 MHz Meridian [MS] (US) 0.00 km UNKNOWN
U3614730 RS41-SGP 2022-12-07 13:18:43 39.485 -104.887 57 ° 33 km/h 3438 m -18.9 m/s Boulder [CO] (US) 403.000 MHz Castle Pines [CO] (US) 0.00 km UNKNOWN
ME9A00777 M20 2022-12-07 13:18:14 54.4006 19.9855 72 ° 46 km/h 568 m -8.3 m/s Łeba (PL) 403.605 MHz Mamonovo (RU) 0.00 km UNKNOWN
T3050651 RS41 2022-12-07 13:18:00 40.0871 20.1228 101 ° 72 km/h 7786 m -12.3 m/s Galatina (IT) 403.50 MHz Gjirokastër (AL) 0.00 km UNKNOWN
T3530878 RS41-SGP 2022-12-07 13:17:50 23.4789 120.037 260 ° 137 km/h 35277 m 9.1 m/s 403.50 MHz Taibao (TW) 0.00 km LOST
U2420328 RS41 2022-12-07 13:17:47 48.203 10.5803 124 ° 6 km/h 685 m -3.4 m/s Stuttgart (DE) 404.50 MHz Königsbrunn (DE) 0.00 km UNKNOWN
U1710016 RS41 2022-12-07 13:15:02 -34.2121 139.843 44 ° 61 km/h 2648 m -6.4 m/s Adelaide (AU) 401.501 MHz Waikerie (AU) 0.00 km UNKNOWN
T3810243 RS41 2022-12-07 13:14:27 43.9048 16.981 84 ° 35 km/h 2386 m -4.9 m/s Zadar (HR) 404.00 MHz Livno (BA) 0.00 km UNKNOWN
D22035892 DFM17 2022-12-07 13:14:23 45.366 -94.8315 80 ° 106 km/h 3980 m -8.1 m/s 404.210 MHz Willmar [MN] (US) 0.00 km UNKNOWN
U1330183 RS41 2022-12-07 13:14:12 48.9517 9.05171 76 ° 17 km/h 313 m -8.6 m/s Idar-Oberstein (DE) 402.700 MHz Bietigheim-Bissingen (DE) 0.00 km FOUND
U2450582 RS41 2022-12-07 13:13:51 43.4164 -115.626 38 ° 13 km/h 2164 m -5.8 m/s Boise [ID] (US) 404.800 MHz Mountain Home [ID] (US) 0.00 km UNKNOWN
U3114537 RS41 2022-12-07 13:13:51 -15.7023 -48.2137 212 ° 7 km/h 1688 m -3.9 m/s Brasilia (BR) 403.001 MHz Águas Lindas de Goiás (BR) 0.00 km UNKNOWN
D22037515 DFM17 2022-12-07 13:13:50 37.4244 -90.6085 89 ° 65 km/h 19525 m -16.6 m/s Springfield [MO] (US) 403.011 MHz Farmington [MO] (US) 0.00 km UNKNOWN
D22028635 DFM 2022-12-07 13:13:19 2.69113 101.304 149 ° 19 km/h 751 m -14.7 m/s Kuala Lumpur (MY) 401.110 MHz 0.00 km LOST
D22044006 DFM17 2022-12-07 13:13:09 43.0526 -106.572 64 ° 20 km/h 7951 m -6.8 m/s Riverton [WY] (US) 400.811 MHz Casper [WY] (US) 0.00 km UNKNOWN
S0950283 RS41 2022-12-07 13:13:02 49.0433 19.433 105 ° 48 km/h 2370 m -11.4 m/s Prostějov (CZ) 402.10 MHz Ružomberok (SK) 0.00 km UNKNOWN
U2750228 RS41 2022-12-07 13:12:58 53.3212 -2.44747 130 ° 13 km/h 162 m -5.8 m/s Eskmeals (GB) 405.10 MHz Knutsford (GB) 0.00 km UNKNOWN
U1830722 RS41 2022-12-07 13:12:53 61.3048 -148.858 350 ° 154 km/h 8107 m -14.7 m/s Anchorage [AK] (US) 405.301 MHz Anchorage [AK] (US) 0.00 km UNKNOWN
U1810915 RS41 2022-12-07 13:12:52 38.8735 -75.408 106 ° 43 km/h 22763 m -28.3 m/s Washington [VA] (US) 403.000 MHz Milford [DE] (US) 0.00 km UNKNOWN
S1950150 RS41 2022-12-07 13:12:48 39.1719 10.4187 147 ° 20 km/h 3160 m -6.2 m/s Decimomannu (IT) 403.50 MHz 0.00 km LOST
U0210041 RS41 2022-12-07 13:12:43 49.4136 16.5292 86 ° 26 km/h 640 m -15.4 m/s Praha (CZ) 404.198 MHz Blansko (CZ) 0.00 km UNKNOWN
U3534096 RS41 2022-12-07 13:12:36 47.2148 21.1533 109 ° 37 km/h 962 m -15.5 m/s Budapest (HU) 403.200 MHz Sárrétudvari (HU) 0.00 km UNKNOWN
S4941423 RS41 2022-12-07 13:11:09 43.3841 -2.92376 96 ° 91 km/h 9045 m -13.0 m/s Santander (ES) 401.500 MHz Górliz-Elexalde (ES) 0.00 km UNKNOWN
U4324862 RS41 2022-12-07 13:10:38 42.5999 24.6325 97 ° 2 km/h 1122 m -15.8 m/s Sofia (BG) 405.301 MHz Voynyagovo (BG) 0.00 km UNKNOWN
T1110490 RS41 2022-12-07 13:10:18 40.3046 -2.33878 347 ° 15 km/h 2885 m -14.9 m/s Madrid (ES) 403.000 MHz Cuenca (ES) 0.00 km FOUND
U2250554 RS41-SG 2022-12-07 13:10:11 44.4149 28.0439 55 ° 33 km/h 863 m -13.5 m/s Bucarest (RO) 403.921 MHz Cernavodă (RO) 0.00 km UNKNOWN
T3950198 RS41 2022-12-07 13:10:10 -34.5474 -57.6166 221 ° 13 km/h 1046 m -14.8 m/s Ezeiza (AR) 403.500 MHz Colonia del Sacramento (UY) 0.00 km LOST
T2940527 RS41 2022-12-07 13:09:43 47.439 11.9101 151 ° 2 km/h 747 m -3.1 m/s Altenstadt (DE) 402.50 MHz Radfeld (AT) 0.00 km UNKNOWN
ME212283D M10 2022-12-07 13:09:37 43.2475 23.2605 55 ° 11 km/h 1473 m -7.9 m/s Niš (RS) 402.400 MHz Zamfirovo (BG) 0.00 km UNKNOWN
U1650773 RS41 2022-12-07 13:09:28 -37.3449 146.316 37 ° 50 km/h 1935 m -7.6 m/s Melbourne (AU) 401.500 MHz Mansfield (AU) 0.00 km UNKNOWN
ME1622E1E M10 2022-12-07 13:09:14 37.9008 -0.22057 82 ° 41 km/h 3553 m -12.8 m/s Murcia (ES) 403.401 MHz Torrevieja (ES) 0.00 km LOST
IMET44726 iMET 2022-12-07 13:08:58 49.2072 7.91192 129 ° 65 km/h 11163 m -0.8 m/s Elsenborn (BE) 402.998 MHz Landau (DE) 0.00 km UNKNOWN
D22031804 DFM 2022-12-07 13:08:33 32.419 -78.5311 112 ° 44 km/h 7088 m -13.0 m/s Charleston [SC] (US) MHz 0.00 km LOST
U3724001 RS41 2022-12-07 13:08:22 50.56 8.91944 101 ° 20 km/h 299 m -8.6 m/s Essen (DE) 405.30 MHz Gießen (DE) 0.00 km UNKNOWN
T4150037 RS41 2022-12-07 13:08:13 -33.924 -70.8125 134 ° 2 km/h 1365 m -16.9 m/s Santo Domingo (CL) 403.000 MHz Isla de Maipo (CL) 0.00 km UNKNOWN
D22026042 DFM17 2022-12-07 13:07:46 3.71234 102.981 255 ° 17 km/h 6111 m -18.9 m/s Kuantan (MY) 401.051 MHz 0.00 km UNKNOWN
U2050523 RS41-SG 2022-12-07 13:07:10 52.1567 23.023 90 ° 237 km/h 32871 m 6.3 m/s Legionowo (PL) 404.50 MHz Biała Podlaska (PL) 0.00 km UNKNOWN
ME9A02659 M20 2022-12-07 13:06:44 49.7985 23.4653 101 ° 169 km/h 27381 m -49.2 m/s Tarnów (PL) 404.796 MHz Sudova Vyshnya (UA) 0.00 km UNKNOWN
T3010854 RS41 2022-12-07 13:05:08 48.8075 13.4301 101 ° 28 km/h 1113 m -3.3 m/s Kümmersbruck (DE) 402.70 MHz Passau (DE) 0.00 km UNKNOWN
U2230867 RS41 2022-12-07 13:04:29 44.7961 -122.204 46 ° 20 km/h 1864 m -15.4 m/s Salem [OR] (US) 401.401 MHz Stayton [OR] (US) 0.00 km UNKNOWN
U0670380 RS41 2022-12-07 13:03:28 67.2147 25.9075 251 ° 28 km/h 16574 m -18.2 m/s Sodankyla (FI) 404.000 MHz Sodankylä (FI) 0.00 km UNKNOWN
U2310329 RS41-SGP 2022-12-07 13:02:30 -25.3541 -54.3716 3 ° 43 km/h 7014 m -3.7 m/s Foz Do Iguacu (BR) 403.001 MHz Foz do Iguaçu (BR) 0.00 km UNKNOWN
D22041070 DFM17 2022-12-07 13:01:30 40.9754 -110.464 93 ° 78 km/h 29616 m -22.0 m/s Salt Lake City [UT] (US) 405.010 MHz Evanston [WY] (US) 0.00 km UNKNOWN
T3210639 RS41-SGP 2022-12-07 13:01:14 -19.3244 -44.0255 65 ° 63 km/h 9689 m -14.7 m/s Confins (BR) 404.000 MHz Sete Lagoas (BR) 0.00 km UNKNOWN
U2230443 RS41 2022-12-07 13:00:56 -32.5943 117.079 139 ° 131 km/h 5934 m -9.0 m/s Perth (AU) 401.500 MHz Narrogin (AU) 0.00 km UNKNOWN
U3340185 RS41 2022-12-07 13:00:56 45.6754 17.3041 241 ° 17 km/h 248 m -10.0 m/s Zagreb (HR) 402.00 MHz Ðulovac (HR) 0.00 km UNKNOWN
U2430390 RS41 2022-12-07 13:00:23 39.0101 -8.5142 276 ° 30 km/h 246 m -16.3 m/s Lisbon (PT) 403.020 MHz Coruche (PT) 0.00 km UNKNOWN
D22042356 DFM 2022-12-07 12:59:48 35.7887 -78.2829 53 ° 31 km/h 2113 m -9.6 m/s Greensboro [NC] (US) 403.400 MHz Wendell [NC] (US) 0.00 km UNKNOWN
U3140560 RS41 2022-12-07 12:59:48 -22.5545 -43.093 38 ° 2 km/h 879 m -8.7 m/s Galeão (BR) 405.301 MHz Petrópolis (BR) 0.00 km UNKNOWN
D22041510 DFM17 2022-12-07 12:59:30 39.4532 -119.135 81 ° 50 km/h 13566 m -10.3 m/s Reno [NV] (US) 404.811 MHz Fernley [NV] (US) 0.00 km UNKNOWN
U2350149 RS41-SGP 2022-12-07 12:59:03 57.6683 7.49357 145 ° 35 km/h 2545 m -17.1 m/s Stavanger (NO) 403.00 MHz Mandal (NO) 0.00 km LOST
D22042376 DFM 2022-12-07 12:58:41 32.519 -104.747 45 ° 94 km/h 5140 m -6.9 m/s Santa Teresa [NM] (US) MHz Artesia [NM] (US) 0.00 km UNKNOWN
U2730694 RS41 2022-12-07 12:58:19 46.1005 21.8167 208 ° 7 km/h 814 m -15.2 m/s Szeged (HU) 402.300 MHz Lipova (RO) 0.00 km UNKNOWN
U1840608 RS41 2022-12-07 12:57:59 37.5662 -121.728 265 ° 7 km/h 1743 m -10.0 m/s Oakland [CA] (US) 404.000 MHz Livermore [CA] (US) 0.00 km UNKNOWN
ME212210F M10 2022-12-07 12:57:53 44.6528 21.7417 73 ° 54 km/h 2242 m -10.3 m/s Belgrade (RS) 402.801 MHz Golubac (RS) 0.00 km UNKNOWN
T4711066 RS41-SG 2022-12-07 12:57:51 -27.4447 -58.8785 280 ° 11 km/h 105 m -14.2 m/s Resistencia (AR) 402.000 MHz Corrientes (AR) 0.00 km UNKNOWN
T2920619 RS41 2022-12-07 12:57:46 51.9382 9.02342 117 ° 22 km/h 342 m -3.1 m/s Meppen (DE) 404.500 MHz Detmold (DE) 0.00 km UNKNOWN
D22035639 DFM17 2022-12-07 12:56:58 47.2817 -66.4636 70 ° 81 km/h 16019 m -12.5 m/s 403.611 MHz 0.00 km UNKNOWN
ME2722AF0 M10 2022-12-07 12:56:12 35.2605 34.6718 344 ° 13 km/h 1267 m -4.0 m/s Nicosia (CY) 403.000 MHz Paralímni (CY) 0.00 km LOST
U2411135 RS41-SG 2022-12-07 12:54:32 58.8423 0.42228 158 ° 102 km/h 25222 m -12.3 m/s 403.100 MHz 0.00 km LOST
R2150689 RS41 2022-12-07 12:47:05 59.0662 11.8477 155 ° 19 km/h 7255 m -24.7 m/s Oslo (NO) 405.50 MHz Ed (SE) 0.00 km UNKNOWN
U4335031 RS41 2022-12-07 12:45:41 44.44 12.9797 50 ° 4 km/h 615 m -16.2 m/s San Pietro Capofiume (IT) 404.60 MHz Cervia (IT) 0.00 km LOST
D22043153 DFM17 2022-12-07 12:44:00 40.3446 -86.9063 72 ° 52 km/h 28368 m 0.2 m/s Lincoln [IL] (US) 405.011 MHz Lafayette [IN] (US) 0.00 km UNKNOWN
IMS10D17D MEISEI 2022-12-07 12:41:03 1.2594 103.489 125 ° 26 km/h 1691 m -9999.0 m/s Singapore (SG) 401.902 MHz 0.00 km LOST
U2240337 RS41 2022-12-07 12:41:03 55.7436 4.49674 131 ° 70 km/h 18018 m -30.6 m/s Ekofisk (NO) 403.00 MHz 0.00 km LOST
D22036703 DFM 2022-12-07 12:40:58 33.1294 -83.6011 85 ° 39 km/h 19790 m 4.7 m/s Peachtree City [GA] (US) MHz Milledgeville [GA] (US) 0.00 km UNKNOWN
U3835192 RS41-SGP 2022-12-07 12:40:56 33.2677 -115.91 63 ° 56 km/h 17039 m -37.8 m/s San Diego [CA] (US) 400.650 MHz Brawley [CA] (US) 0.00 km UNKNOWN
D22041029 DFM17 2022-12-07 12:40:44 32.6177 -92.6509 91 ° 76 km/h 26256 m 3.0 m/s Shreveport [LA] (US) 403.010 MHz Ruston [LA] (US) 0.00 km UNKNOWN
D22026553 DFM 2022-12-07 12:39:30 6.15324 101.926 234 ° 15 km/h 642 m -15.1 m/s Kota Bharu (MY) 401.910 MHz 0.00 km UNKNOWN
U3440521 RS41-SGP 2022-12-07 12:27:04 37.8228 25.0138 100 ° 35 km/h 9058 m -15.3 m/s Athens (GR) 402.741 MHz Ándros (GR) 0.00 km LOST
U3320521 RS41-SG 2022-12-07 12:21:49 50.7539 -1.35938 149 ° 30 km/h 2529 m -2.5 m/s Larkhill (GB) 404.402 MHz Cowes (GB) 0.00 km LOST
ME24221F3 M10 2022-12-07 12:18:35 41.3908 2.70493 105 ° 63 km/h 15815 m 3.9 m/s Barcelona (ES) 403.999 MHz Canet de Mar (ES) 0.00 km LOST
U4054647 RS41 2022-12-07 12:16:51 59.3653 15.1576 179 ° 13 km/h 862 m -8.5 m/s Karlskoga (SE) 404.000 MHz Örebro (SE) 0.00 km UNKNOWN
S4620955 RS41 2022-12-07 12:02:51 40.8191 17.743 95 ° 52 km/h 5534 m -3.4 m/s 403.000 MHz Carovigno (IT) 0.00 km LOST
U3534526 RS41 2022-12-07 12:01:42 44.605 -63.2349 121 ° 87 km/h 13167 m 3.0 m/s Shearwater [NS] (CA) 401.001 MHz 0.00 km LOST
D21049032 DFM09P 2022-12-07 11:52:00 80.0574 -88.0563 274 ° 159 km/h 9382 m 3.6 m/s Eureka [NU] (CA) 405.011 MHz 0.00 km UNKNOWN
T4420416 RS41 2022-12-07 11:43:31 25.0277 121.794 91 ° 157 km/h 11031 m 6.8 m/s New Taipei (TW) 400.30 MHz Keelung (TW) 0.00 km UNKNOWN
U2750202 RS41-SG 2022-12-07 11:42:56 53.3705 -2.61273 163 ° 20 km/h 303 m -5.5 m/s Eskmeals (GB) 405.10 MHz Warrington (GB) 0.00 km UNKNOWN
ME792256C M10 2022-12-07 11:41:10 43.2536 3.04944 82 ° 39 km/h 3726 m -4.3 m/s Toulouse (FR) 402.000 MHz Coursan (FR) 0.00 km UNKNOWN
T0920691 RS41 2022-12-07 11:09:15 -41.0134 174.912 264 ° 4 km/h 235 m -13.0 m/s Paraparaumu (NZ) 400.501 MHz Paekakariki (NZ) 0.00 km LOST
U4624575 RS41-SG 2022-12-07 10:27:16 60.8067 26.7859 335 ° 19 km/h 1194 m -2.8 m/s Vaisala Oyj (FI) 401.778 MHz Kouvola (FI) 0.00 km UNKNOWN
U4355182 RS41-SG 2022-12-07 09:59:21 60.8033 26.4835 331 ° 17 km/h 1529 m -2.3 m/s Vaisala Oyj (FI) 402.700 MHz Kausala (FI) 0.00 km UNKNOWN
U4054642 RS41 2022-12-07 09:57:06 59.361 15.2305 199 ° 15 km/h 1343 m -8.0 m/s Karlskoga (SE) 401.000 MHz Örebro (SE) 0.00 km UNKNOWN
U4624305 RS41 2022-12-07 09:43:30 60.6994 26.423 24 ° 74 km/h 4025 m -4.4 m/s Vaisala Oyj (FI) 402.401 MHz Kausala (FI) 0.00 km UNKNOWN
T2920623 RS41 2022-12-07 09:32:46 51.8702 8.48785 80 ° 13 km/h 146 m -10.0 m/s Meppen (DE) 405.100 MHz Verl (DE) 0.00 km FOUND
U2750205 RS41 2022-12-07 09:26:38 53.137 -2.44684 141 ° 9 km/h 111 m -2.5 m/s Eskmeals (GB) 405.10 MHz Crewe (GB) 0.00 km UNKNOWN
U2750211 RS41 2022-12-07 09:16:02 53.5513 -2.82239 156 ° 41 km/h 3622 m -5.8 m/s Eskmeals (GB) 405.10 MHz Skelmersdale (GB) 0.00 km UNKNOWN
U0611292 RS41-SG 2022-12-07 09:09:05 55.2851 10.7057 134 ° 43 km/h 413 m -6.9 m/s Karup (DK) 405.30 MHz Nyborg (DK) 0.00 km FOUND
IMET36757 iMET 2022-12-07 08:44:45 49.9639 6.73818 139 ° 33 km/h 2553 m -17.2 m/s Elsenborn (BE) 402.999 MHz Trier (DE) 0.00 km UNKNOWN
ME212283B M10 2022-12-07 08:40:37 43.3267 21.8975 287 ° 2 km/h 255 m 2.4 m/s Niš (RS) MHz Niš (RS) 0.00 km UNKNOWN
T3420425 RS41 2022-12-07 08:39:22 47.2332 12.9428 88 ° 28 km/h 2438 m -4.0 m/s Hohenpeissenberg (DE) 402.90 MHz Rauris (AT) 0.00 km UNKNOWN
U4054694 RS41 2022-12-07 08:29:08 59.1991 15.3416 226 ° 17 km/h 447 m -13.6 m/s Karlskoga (SE) 404.000 MHz Örebro (SE) 0.00 km UNKNOWN
D22036366 DFM 2022-12-07 08:19:24 48.2728 18.7281 109 ° 33 km/h 507 m -12.2 m/s Záhorie (SK) 403.812 MHz Levice (SK) 0.00 km UNKNOWN
U4064996 RS41 2022-12-07 08:10:51 50.7608 -1.58313 167 ° 24 km/h 2519 m -2.5 m/s Larkhill (GB) 404.402 MHz Lymington (GB) 0.00 km UNKNOWN
U0620487 RS41 2022-12-07 07:31:52 61.0944 24.9882 182 ° 4 km/h 391 m -11.4 m/s Jokioinen (FI) 403.000 MHz Hämeenkoski (FI) 0.00 km UNKNOWN
U2420324 RS41 2022-12-07 07:30:25 48.0719 11.2472 100 ° 15 km/h 833 m -4.1 m/s Stuttgart (DE) 404.50 MHz Starnberg (DE) 0.00 km FOUND
U4324864 RS41 2022-12-07 07:06:30 42.5752 24.5287 64 ° 7 km/h 1536 m -15.3 m/s Sofia (BG) 405.301 MHz Rozino (BG) 0.00 km UNKNOWN
ME2122E5B M10 2022-12-07 07:03:31 43.2044 23.1892 99 ° 15 km/h 1568 m -11.6 m/s Niš (RS) 402.400 MHz Barzia (BG) 0.00 km UNKNOWN
T2940287 RS41 2022-12-07 07:02:06 47.4336 12.6159 109 ° 17 km/h 1745 m -2.0 m/s Altenstadt (DE) 402.50 MHz Fieberbrunn (AT) 0.00 km UNKNOWN
T2920621 RS41 2022-12-07 07:01:00 51.6508 8.72851 95 ° 17 km/h 218 m -2.8 m/s Meppen (DE) 404.500 MHz Paderborn (DE) 0.00 km UNKNOWN
T1520656 RS41 2022-12-07 06:54:45 35.0542 34.7809 9 ° 2 km/h 1348 m -9.8 m/s Nicosia (CY) 403.001 MHz Agía Nápa (CY) 0.00 km LOST
ME212210E M10 2022-12-07 06:54:28 44.6157 21.6387 65 ° 20 km/h 1813 m -14.3 m/s Belgrade (RS) 402.801 MHz Golubac (RS) 0.00 km UNKNOWN
U1470803 RS41 2022-12-07 06:50:05 51.6144 16.0706 107 ° 46 km/h 949 m -9.7 m/s Lindenberg (DE) 405.100 MHz Głogów (PL) 0.00 km UNKNOWN
U1240368 RS41 2022-12-07 06:33:00 49.1303 8.07818 84 ° 20 km/h 306 m -8.6 m/s Idar-Oberstein (DE) 402.700 MHz Landau (DE) 0.00 km FOUND
T2420613 RS41 2022-12-07 05:40:10 46.778 12.9845 237 ° 11 km/h 2051 m -1.9 m/s Innsbruck (AT) 404.10 MHz Dölsach (AT) 0.00 km UNKNOWN
S2410947 RS41 2022-12-07 05:25:26 46.6591 16.9635 82 ° 7 km/h 373 m -2.1 m/s Graz (AT) 404.70 MHz Zalakomár (HU) 0.00 km UNKNOWN
ME9900422 M20 2022-12-07 05:22:19 45.9937 15.0863 322 ° 4 km/h 1526 m -11.9 m/s Ljubljana (SI) 403.003 MHz Šentrupert (SI) 0.00 km FOUND
T4830329 RS41 2022-12-07 04:33:06 47.9951 15.1137 98 ° 26 km/h 668 m -6.3 m/s Linz (AT) 403.40 MHz Scheibbs (AT) 0.00 km UNKNOWN
U2914722 RS41 2022-12-07 02:38:42 47.6715 18.8742 88 ° 15 km/h 597 m -3.2 m/s Vienna (AT) 403.50 MHz Pilisszántó (HU) 0.00 km UNKNOWN
U0230111 RS41 2022-12-07 02:33:09 40.4322 -2.39338 2 ° 2 km/h 1141 m -2.6 m/s Madrid (ES) 403.000 MHz Cuenca (ES) 0.00 km UNKNOWN
T3150692 RS41 2022-12-07 02:30:12 37.443 14.4801 75 ° 24 km/h 1235 m -2.2 m/s Trapani-Birgi (IT) 404.500 MHz Valguarnera Caropepe (IT) 0.00 km UNKNOWN
ME152288D M10 2022-12-07 02:25:00 47.7184 -2.55078 262 ° 44 km/h 1024 m -3.7 m/s Brest (FR) 404.000 MHz Elven (FR) 0.00 km UNKNOWN
T3040126 RS41 2022-12-07 02:23:38 41.1522 15.2139 113 ° 22 km/h 3350 m -3.1 m/s Pratica di Mare (IT) 402.700 MHz Ariano Irpino (IT) 0.00 km UNKNOWN
U2830697 RS41 2022-12-07 02:20:39 56.8721 14.7325 218 ° 11 km/h 1298 m -5.0 m/s Göteborg (SE) 405.30 MHz Växjö (SE) 0.00 km UNKNOWN
U1150415 RS41 2022-12-07 02:19:45 49.4895 13.0207 53 ° 28 km/h 575 m -2.3 m/s Meiningen (DE) 402.30 MHz Domažlice (CZ) 0.00 km UNKNOWN
U2260088 RS41 2022-12-07 02:16:57 47.9652 11.536 78 ° 15 km/h 801 m -2.2 m/s Stuttgart (DE) 404.50 MHz Geretsried (DE) 0.00 km FOUND
T3130587 RS41 2022-12-07 02:16:21 44.8079 10.7732 229 ° 7 km/h 69 m -2.0 m/s Cameri (IT) 404.90 MHz Correggio (IT) 0.00 km FOUND
T4240041 RS41 2022-12-07 02:14:55 43.9141 9.4104 66 ° 20 km/h 881 m -2.4 m/s Cuneo-Levaldigi (IT) 403.70 MHz La Spezia (IT) 0.00 km LOST
T0340970 RS41 2022-12-07 02:09:28 43.3211 -7.35359 263 ° 17 km/h 979 m -6.2 m/s A Coruña (ES) 404.001 MHz Castro de Rey (ES) 0.00 km UNKNOWN
U1470640 RS41 2022-12-07 02:03:25 51.4499 16.3327 114 ° 39 km/h 665 m -2.1 m/s Lindenberg (DE) 405.100 MHz Ścinawa (PL) 0.00 km UNKNOWN
U2450389 RS41-NG 2022-12-07 02:01:00 43.4613 -75.1126 40 ° 69 km/h 2945 m -3.0 m/s Buffalo [NY] (US) 403.786 MHz Rome [NY] (US) 0.00 km UNKNOWN
U1060169 RS41 2022-12-07 02:00:57 53.4778 -5.76743 177 ° 57 km/h 6869 m -4.1 m/s Castor Bay (IE) 403.90 MHz Balbriggan (IE) 0.00 km LOST
U0550585 RS41 2022-12-07 02:00:37 -29.4872 -50.723 220 ° 9 km/h 611 m -2.3 m/s Porto Alegre (BR) 403.001 MHz Novo Hamburgo (BR) 0.00 km UNKNOWN
U3350364 RS41 2022-12-07 01:57:56 50.4612 9.36946 62 ° 39 km/h 593 m -2.4 m/s Essen (DE) 405.30 MHz Fulda (DE) 0.00 km UNKNOWN
U2210417 RS41 2022-12-07 01:56:34 50.1381 1.13218 174 ° 22 km/h 103 m -2.6 m/s Herstmonceux (GB) 405.80 MHz Eu (FR) 0.00 km LOST
U4154668 RS41 2022-12-07 01:55:45 38.3974 -95.9602 113 ° 4 km/h 1548 m -3.4 m/s 405.201 MHz Emporia [KS] (US) 0.00 km UNKNOWN
MTS98C0EB MTS01 2022-12-07 01:55:28 40.7596 30.5844 76 ° 22 km/h 2421 m -9999.0 m/s Istanbul (TR) 401.001 MHz Akyazı (TR) 0.00 km UNKNOWN
D22037145 DFM17 2022-12-07 01:55:20 41.8754 -91.9197 66 ° 128 km/h 6323 m -3.6 m/s 403.205 MHz Cedar Rapids [IA] (US) 0.00 km UNKNOWN
U0240775 RS41-SGP 2022-12-07 01:54:58 -27.0252 -48.2112 4 ° 22 km/h 767 m -2.9 m/s Florianopolis (BR) 405.299 MHz Balneário Camboriú (BR) 0.00 km LOST
D19055206 DFM17 2022-12-07 01:53:30 35.2523 35.528 63 ° 24 km/h 2802 m -16.9 m/s Nicosia (CY) 402.491 MHz Yayladağı (TR) 0.00 km LOST
ME15229AF M10 2022-12-07 01:52:31 41.4588 10.824 120 ° 2 km/h 1313 m -10.7 m/s Ajaccio (FR) 401.003 MHz 0.00 km LOST
ME2122E5D M10 2022-12-07 01:52:27 43.2085 23.869 25 ° 2 km/h 530 m -2.5 m/s Niš (RS) 402.400 MHz Roman (BG) 0.00 km UNKNOWN
T1450393 RS41 2022-12-07 01:51:48 51.2207 6.13049 97 ° 15 km/h 169 m -9.7 m/s De Bilt (NL) 403.901 MHz Swalmen (NL) 0.00 km FOUND
D22041577 DFM17 2022-12-07 01:51:00 39.2528 -119.282 211 ° 11 km/h 5436 m -2.7 m/s Reno [NV] (US) 404.811 MHz Fernley [NV] (US) 0.00 km UNKNOWN
S1950223 RS41 2022-12-07 01:50:32 38.8951 10.7873 115 ° 26 km/h 3477 m -3.2 m/s Decimomannu (IT) 403.50 MHz 0.00 km LOST
U3130801 RS41 2022-12-07 01:49:39 -23.1827 -46.4585 77 ° 2 km/h 1206 m -10.1 m/s São Paulo (BR) 405.300 MHz Atibaia (BR) 0.00 km UNKNOWN
D22037099 DFM17 2022-12-07 01:47:11 36.9927 -77.8117 74 ° 41 km/h 2438 m -5.3 m/s Blacksburg [VA] (US) 404.010 MHz Petersburg [VA] (US) 0.00 km UNKNOWN
U0150543 RS41 2022-12-07 01:45:06 37.2886 -5.52363 83 ° 22 km/h 2113 m -7.9 m/s Huelva (ES) 402.504 MHz Paradas (ES) 0.00 km UNKNOWN
D22037190 DFM17 2022-12-07 01:44:30 41.6803 -96.357 83 ° 70 km/h 3411 m -3.5 m/s North Platte [NE] (US) 403.010 MHz Fremont [NE] (US) 0.00 km UNKNOWN
ME8F00687 M20 2022-12-07 01:44:30 44.4965 0.554951 139 ° 11 km/h 1092 m -5.6 m/s Bordeaux (FR) 402.802 MHz Sainte-Livrade-sur-Lot (FR) 0.00 km UNKNOWN
D22028600 DFM 2022-12-07 01:41:41 2.67799 101.544 171 ° 13 km/h 861 m -13.1 m/s Kuala Lumpur (MY) 401.110 MHz 0.00 km UNKNOWN
ME8F02056 M20 2022-12-07 01:40:33 43.3494 5.61962 126 ° 39 km/h 2047 m -7.0 m/s Nîmes (FR) 402.002 MHz Roquevaire (FR) 0.00 km UNKNOWN
U1470398 RS41 2022-12-07 01:37:24 47.5525 13.602 108 ° 30 km/h 2232 m -2.0 m/s München (DE) 402.30 MHz Bad Goisern (AT) 0.00 km UNKNOWN
D22035417 DFM 2022-12-07 01:36:16 36.2443 -83.4702 83 ° 83 km/h 5879 m -7.4 m/s 404.810 MHz Morristown [TN] (US) 0.00 km UNKNOWN
D22043116 DFM17 2022-12-07 01:34:44 40.5454 -85.5417 74 ° 100 km/h 5681 m -5.2 m/s Lincoln [IL] (US) 405.011 MHz Marion [IN] (US) 0.00 km UNKNOWN
U3360654 RS41 2022-12-07 01:33:53 52.3281 9.04809 74 ° 15 km/h 141 m -1.9 m/s Norderney (DE) 404.10 MHz Bückeburg (DE) 0.00 km UNKNOWN
T1110462 RS41 2022-12-07 01:33:23 39.4203 3.85716 89 ° 46 km/h 8144 m -5.1 m/s Palma (ES) 402.001 MHz Capdepera (ES) 0.00 km LOST
U1240609 RS41 2022-12-07 01:31:59 48.9033 9.18929 102 ° 6 km/h 336 m -2.5 m/s Idar-Oberstein (DE) 402.700 MHz Ludwigsburg (DE) 0.00 km FOUND
U3320037 RS41 2022-12-07 01:31:36 46.9921 21.1791 87 ° 28 km/h 434 m -11.4 m/s Budapest (HU) 403.200 MHz Szeghalom (HU) 0.00 km UNKNOWN
U3044233 RS41 2022-12-07 01:31:30 35.6408 -94.6362 71 ° 72 km/h 3015 m -12.2 m/s 404.201 MHz Van Buren [AR] (US) 0.00 km UNKNOWN
S4040770 RS41 2022-12-07 01:31:08 48.4915 22.5812 44 ° 20 km/h 871 m -12.7 m/s Poprad (SK) 400.601 MHz Kaydanovo (UA) 0.00 km UNKNOWN
U0620468 RS41 2022-12-07 01:30:27 61.1098 25.2309 11 ° 15 km/h 253 m -7.6 m/s Jokioinen (FI) 403.000 MHz Hämeenkoski (FI) 0.00 km UNKNOWN
ME0A2245C M10 2022-12-07 01:30:26 48.1433 3.42408 1 ° 37 km/h 12148 m 0.0 m/s Trappes (FR) 400.999 MHz Villeneuve-sur-Yonne (FR) 0.00 km UNKNOWN
D22028002 DFM 2022-12-07 01:30:22 5.28816 99.974 111 ° 9 km/h 3071 m -13.6 m/s Bayan Lepas (MY) 400.171 MHz 0.00 km LOST
U2010168 RS41-SG 2022-12-07 01:30:05 51.4678 -10.3111 243 ° 30 km/h 151 m -11.2 m/s Cahersiveen (IE) 405.30 MHz Bantry (IE) 0.00 km LOST
U2420917 RS41 2022-12-07 01:28:59 49.6588 -4.68388 167 ° 11 km/h 1633 m -9.4 m/s Camborne (GB) 403.30 MHz Falmouth (GB) 0.00 km LOST
ME9A03571 M20 2022-12-07 01:26:55 50.4731 18.6712 98 ° 26 km/h 581 m -8.7 m/s Wrocław (PL) 402.998 MHz Pyskowice (PL) 0.00 km UNKNOWN
U2310373 RS41 2022-12-07 01:26:00 -25.3162 -54.213 321 ° 11 km/h 2341 m -3.6 m/s Foz Do Iguacu (BR) 403.000 MHz Foz do Iguaçu (BR) 0.00 km UNKNOWN
ME9A02640 M20 2022-12-07 01:25:58 49.5226 23.0094 74 ° 46 km/h 1516 m -10.3 m/s Tarnów (PL) 404.799 MHz Skelivka (UA) 0.00 km UNKNOWN
D22037424 DFM17 2022-12-07 01:25:45 33.0903 -84.5884 93 ° 43 km/h 4324 m -12.6 m/s Alabaster [AL] (US) 405.610 MHz Thomaston [GA] (US) 0.00 km UNKNOWN
U2925213 RS41-SG 2022-12-07 01:25:33 -27.2491 154.354 81 ° 80 km/h 9035 m -9.8 m/s Brisbane (AU) 401.50 MHz 0.00 km LOST
D22037072 DFM17 2022-12-07 01:24:43 42.0756 -87.0288 79 ° 174 km/h 8730 m -5.7 m/s 403.410 MHz Michigan City [IN] (US) 0.00 km UNKNOWN
U3035079 RS41 2022-12-07 01:24:35 39.4558 -92.4982 82 ° 57 km/h 3282 m -6.4 m/s Topeka [KS] (US) 404.001 MHz Moberly [MO] (US) 0.00 km UNKNOWN
U2450580 RS41-NG 2022-12-07 01:24:06 43.14 -115.021 118 ° 20 km/h 1592 m -5.5 m/s Boise [ID] (US) 404.800 MHz Mountain Home [ID] (US) 0.00 km UNKNOWN
U3140561 RS41 2022-12-07 01:22:59 -22.5238 -42.8736 224 ° 2 km/h 437 m -9.9 m/s Galeão (BR) 405.301 MHz Teresópolis (BR) 0.00 km UNKNOWN
U1650771 RS41 2022-12-07 01:21:26 -38.056 146.223 85 ° 30 km/h 650 m -8.1 m/s Melbourne (AU) 401.500 MHz Moe (AU) 0.00 km UNKNOWN
S3221571 RS41 2022-12-07 01:21:16 46.1593 8.77383 107 ° 9 km/h 2014 m -9.0 m/s Payerne (CH) 404.497 MHz Ascona (CH) 0.00 km UNKNOWN
U2411145 RS41-SG 2022-12-07 01:20:49 58.5499 0.74641 147 ° 124 km/h 26524 m -20.1 m/s 403.100 MHz 0.00 km LOST
D22043171 DFM 2022-12-07 01:20:32 35.8123 -77.8231 103 ° 28 km/h 2883 m -4.4 m/s Greensboro [NC] (US) MHz Wilson [NC] (US) 0.00 km UNKNOWN
U1070585 RS41 2022-12-07 01:20:30 52.2558 -0.973179 154 ° 20 km/h 223 m -2.3 m/s Watnall (GB) 405.501 MHz Wootton (GB) 0.00 km UNKNOWN
U1631186 RS41 2022-12-07 01:20:30 35.1416 -119.059 32 ° 26 km/h 2566 m -9.8 m/s Santa Maria [CA] (US) 400.251 MHz Lamont [CA] (US) 0.00 km UNKNOWN
U0210044 RS41 2022-12-07 01:19:52 49.413 16.0625 118 ° 33 km/h 777 m -13.4 m/s Praha (CZ) 404.200 MHz Velké Meziříčí (CZ) 0.00 km UNKNOWN
D22032073 DFM 2022-12-07 01:19:37 32.3726 -78.3818 141 ° 57 km/h 7263 m -7.0 m/s Charleston [SC] (US) MHz 0.00 km LOST
U2030263 RS41 2022-12-07 01:19:28 51.969 22.4137 96 ° 31 km/h 1195 m -9.8 m/s Legionowo (PL) 404.501 MHz Łuków (PL) 0.00 km UNKNOWN
D22041554 DFM17 2022-12-07 01:18:35 45.2947 -90.2645 84 ° 80 km/h 3417 m -6.9 m/s Chanhassen [MN] (US) 403.610 MHz Wausau [WI] (US) 0.00 km UNKNOWN
U3510459 RS41 2022-12-07 01:18:35 39.3677 -104.655 93 ° 35 km/h 3498 m -16.0 m/s 403.000 MHz The Pinery [CO] (US) 0.00 km UNKNOWN
U1710015 RS41 2022-12-07 01:17:56 -34.9936 140.244 79 ° 69 km/h 2655 m -7.9 m/s Adelaide (AU) 401.501 MHz Loxton (AU) 0.00 km UNKNOWN
U3044505 RS41 2022-12-07 01:16:36 32.3997 -88.1375 67 ° 39 km/h 1700 m -15.8 m/s 403.400 MHz Meridian [MS] (US) 0.00 km UNKNOWN
D20059554 DFM09P 2022-12-07 01:16:24 49.1677 -117.508 146 ° 83 km/h 6778 m -19.1 m/s 402.006 MHz 0.00 km UNKNOWN
ME1622E01 M10 2022-12-07 01:15:31 37.9869 -0.27894 67 ° 7 km/h 2555 m -5.1 m/s Murcia (ES) 403.401 MHz Santa Pola (ES) 0.00 km LOST
U1460662 RS41 2022-12-07 01:15:05 53.6655 11.4365 62 ° 33 km/h 191 m -4.5 m/s Schleswig (DE) 402.50 MHz Schwerin (DE) 0.00 km UNKNOWN
S5010191 RS41 2022-12-07 01:14:11 43.4197 -3.04411 90 ° 37 km/h 7042 m -21.9 m/s Santander (ES) 401.500 MHz Sopelana (ES) 0.00 km LOST
U2070904 RS41 2022-12-07 01:14:10 45.5503 14.7706 50 ° 7 km/h 1508 m -5.1 m/s Udine-Rivolto (IT) 404.00 MHz Osilnica (SI) 0.00 km FOUND
D22026350 DFM 2022-12-07 01:13:37 6.15616 101.978 334 ° 19 km/h 252 m -12.3 m/s Kota Bharu (MY) 401.910 MHz 0.00 km UNKNOWN
U2231244 RS41 2022-12-07 01:12:43 44.4547 -122.409 85 ° 20 km/h 1912 m -15.0 m/s Salem [OR] (US) 401.401 MHz Sweet Home [OR] (US) 0.00 km UNKNOWN
S1030302 RS41 2022-12-07 01:12:12 48.956 18.9022 87 ° 35 km/h 1765 m -16.7 m/s Prostějov (CZ) 402.10 MHz Turčianske Teplice (SK) 0.00 km UNKNOWN
T3110990 RS41 2022-12-07 01:10:49 40.0974 19.5593 82 ° 33 km/h 4569 m -8.6 m/s Galatina (IT) 403.50 MHz Himarë (AL) 0.00 km LOST
U1440134 RS41 2022-12-07 01:09:50 53.4405 15.6879 117 ° 35 km/h 469 m -10.6 m/s Greifswald (DE) 402.30 MHz Ińsko (PL) 0.00 km UNKNOWN
D22035303 DFM17 2022-12-07 01:09:45 46.7574 -116.057 158 ° 91 km/h 10402 m -15.5 m/s Spokane [WA] (US) 403.211 MHz Moscow [ID] (US) 0.00 km UNKNOWN
U2954201 RS41 2022-12-07 01:09:08 -32.2889 117.149 133 ° 63 km/h 5704 m -9.3 m/s Perth (AU) 401.500 MHz York (AU) 0.00 km UNKNOWN
D22043815 DFM17 2022-12-07 01:08:42 42.9603 -106.235 82 ° 93 km/h 11083 m -6.1 m/s Riverton [WY] (US) 400.811 MHz Casper [WY] (US) 0.00 km UNKNOWN
D22042839 DFM 2022-12-07 01:07:09 32.5002 -104.367 78 ° 83 km/h 5801 m -13.8 m/s Santa Teresa [NM] (US) MHz Carlsbad [NM] (US) 0.00 km UNKNOWN
D22028040 DFM17 2022-12-07 01:05:38 3.72028 103.03 283 ° 39 km/h 13220 m -19.9 m/s Kuantan (MY) 401.051 MHz 0.00 km UNKNOWN
D22034512 DFM17 2022-12-07 01:05:34 5.91048 115.708 250 ° 28 km/h 11044 m -6.0 m/s Kota Kinabalu (MY) 403.711 MHz 0.00 km LOST
ME9A00781 M20 2022-12-07 01:04:46 54.1493 19.674 128 ° 106 km/h 21861 m -26.9 m/s Łeba (PL) 403.604 MHz Młynary (PL) 0.00 km UNKNOWN
U2730710 RS41 2022-12-07 01:03:49 45.9495 21.7446 193 ° 24 km/h 597 m -12.7 m/s Szeged (HU) 402.300 MHz Lipova (RO) 0.00 km UNKNOWN
T3450767 RS41-SG 2022-12-07 01:02:33 -35.286 149.329 122 ° 20 km/h 1017 m -12.1 m/s Wagga Wagga (AU) 401.501 MHz Queanbeyan (AU) 0.00 km UNKNOWN
D22037450 DFM17 2022-12-07 01:02:19 37.5397 -90.7761 78 ° 93 km/h 17909 m -7.3 m/s Springfield [MO] (US) 403.011 MHz Farmington [MO] (US) 0.00 km UNKNOWN
U3114538 RS41-SGP 2022-12-07 01:01:53 -15.663 -48.2252 278 ° 13 km/h 1511 m -9.2 m/s Brasilia (BR) 403.001 MHz Águas Lindas de Goiás (BR) 0.00 km UNKNOWN
T4720003 RS41 2022-12-07 01:01:05 59.4783 25.8551 19 ° 37 km/h 265 m -14.6 m/s Tallinn (EE) 404.000 MHz Loksa (EE) 0.00 km UNKNOWN
U0640162 RS41 2022-12-07 01:01:04 67.0629 26.6199 198 ° 35 km/h 19365 m -14.7 m/s Sodankyla (FI) 404.000 MHz Pelkosenniemi (FI) 0.00 km UNKNOWN
U2220763 RS41 2022-12-07 01:00:54 55.4348 4.12795 152 ° 102 km/h 6049 m -15.6 m/s Ekofisk (NO) 403.00 MHz 0.00 km LOST
U0340060 RS41 2022-12-07 01:00:50 -25.2772 -49.2174 297 ° 37 km/h 16084 m -6.3 m/s Curitiba (BR) 403.001 MHz Almirante Tamandaré (BR) 0.00 km UNKNOWN
D22035835 DFM17 2022-12-07 01:00:19 45.6661 -95.3784 82 ° 157 km/h 6227 m -10.9 m/s 404.211 MHz Alexandria [MN] (US) 0.00 km UNKNOWN
D22041597 DFM17 2022-12-07 01:00:13 40.8367 -110.377 105 ° 143 km/h 31513 m -28.5 m/s Salt Lake City [UT] (US) 405.010 MHz Evanston [WY] (US) 0.00 km UNKNOWN
ME21220C6 M10 2022-12-07 00:59:18 44.6056 21.7309 101 ° 37 km/h 2541 m -15.6 m/s Belgrade (RS) 402.801 MHz Golubac (RS) 0.00 km UNKNOWN
U1730074 RS41-SG 2022-12-07 00:58:02 44.4498 27.7607 15 ° 20 km/h 1049 m -9.4 m/s Bucarest (RO) 403.921 MHz Feteşti (RO) 0.00 km UNKNOWN
U1620702 RS41 2022-12-07 00:57:56 57.4254 7.26825 170 ° 59 km/h 3238 m -18.0 m/s Stavanger (NO) 403.00 MHz Mandal (NO) 0.00 km LOST
U2411173 RS41 2022-12-07 00:57:07 54.3143 -1.40626 163 ° 52 km/h 5774 m -11.7 m/s Albemarle (GB) 405.101 MHz Northallerton (GB) 0.00 km UNKNOWN
U2330310 RS41 2022-12-07 00:57:02 38.9974 -75.6788 80 ° 37 km/h 23589 m -25.2 m/s Washington [VA] (US) 403.000 MHz Dover [DE] (US) 0.00 km UNKNOWN
U4435608 RS41 2022-12-07 00:55:18 44.3404 12.7666 92 ° 46 km/h 2405 m -18.3 m/s San Pietro Capofiume (IT) 404.60 MHz Cesenatico (IT) 0.00 km LOST
IMS10CAEE MEISEI 2022-12-07 00:54:52 1.29156 103.528 174 ° 13 km/h 893 m -9999.0 m/s Singapore (SG) 401.901 MHz 0.00 km LOST
S4021044 RS41 2022-12-07 00:54:11 54.9676 24.5662 302 ° 13 km/h 182 m -13.8 m/s Kaunas (LT) 401.000 MHz Kaišiadorys (LT) 0.00 km UNKNOWN
U1840726 RS41-SGP 2022-12-07 00:53:43 37.5494 -121.707 268 ° 15 km/h 2220 m -16.8 m/s Oakland [CA] (US) 404.000 MHz Livermore [CA] (US) 0.00 km UNKNOWN
D22044254 DFM 2022-12-07 00:52:25 35.4884 -104.537 75 ° 169 km/h 14469 m -15.9 m/s Albuquerque [NM] (US) MHz Las Vegas [NM] (US) 0.00 km UNKNOWN
U1720726 RS41 2022-12-07 00:50:47 -32.8043 152.814 93 ° 52 km/h 16307 m -21.4 m/s Williamtown (AU) 402.500 MHz Nelson Bay (AU) 0.00 km LOST
T3230819 RS41 2022-12-07 00:45:54 -19.3261 -44.0697 1 ° 35 km/h 9915 m -6.1 m/s Confins (BR) 404.000 MHz Sete Lagoas (BR) 0.00 km UNKNOWN
U3450363 RS41-SGP 2022-12-07 00:44:20 33.3072 -115.658 63 ° 146 km/h 14184 m -15.9 m/s San Diego [CA] (US) 400.650 MHz Brawley [CA] (US) 0.00 km UNKNOWN
T3030121 RS41 2022-12-07 00:43:15 48.8945 13.0789 108 ° 20 km/h 1287 m -5.1 m/s Kümmersbruck (DE) 402.70 MHz Deggendorf (DE) 0.00 km UNKNOWN
U1730547 RS41-SGP 2022-12-07 00:41:39 40.4865 23.839 62 ° 9 km/h 1337 m -8.6 m/s Thessaloniki (GR) 403.000 MHz Stratóni (GR) 0.00 km LOST
D22041007 DFM17 2022-12-07 00:41:31 32.6209 -92.3159 93 ° 174 km/h 31709 m 7.1 m/s Shreveport [LA] (US) 403.010 MHz Claiborne [LA] (US) 0.00 km UNKNOWN
T3810141 RS41 2022-12-07 00:40:42 43.9352 16.2568 7 ° 13 km/h 1117 m -17.1 m/s Zadar (HR) 403.00 MHz Biskupija (HR) 0.00 km UNKNOWN
U3330935 RS41 2022-12-07 00:38:26 45.668 16.9095 179 ° 15 km/h 280 m -9.0 m/s Zagreb (HR) 402.00 MHz Velika Trnovitica (HR) 0.00 km UNKNOWN
T3010649 RS41 2022-12-07 00:11:30 52.5491 11.0468 84 ° 39 km/h 554 m -13.2 m/s Bergen (DE) 405.70 MHz Wolfsburg (DE) 0.00 km UNKNOWN
ME24221D6 M10 2022-12-07 00:05:30 41.2949 2.54543 97 ° 54 km/h 13732 m 3.5 m/s Barcelona (ES) 404.000 MHz San Juan de Vilasar (ES) 0.00 km LOST
D21048763 DFM09P 2022-12-07 00:04:59 80.1478 -88.3092 313 ° 76 km/h 15056 m 5.0 m/s Eureka [NU] (CA) 405.010 MHz 0.00 km LOST
U3534496 RS41 2022-12-06 23:50:57 44.6714 -63.3849 116 ° 63 km/h 10682 m 4.6 m/s Shearwater [NS] (CA) 403.001 MHz 0.00 km UNKNOWN
T4410273 RS41 2022-12-06 23:48:19 25.0216 122.058 93 ° 156 km/h 13756 m 3.9 m/s New Taipei (TW) 400.30 MHz Keelung (TW) 0.00 km LOST
T0920733 RS41-SG 2022-12-06 23:29:26 -40.8466 175.221 259 ° 9 km/h 1839 m -11.4 m/s Paraparaumu (NZ) 400.501 MHz Te Horo Beach (NZ) 0.00 km UNKNOWN
N0550975 RS41-SGP 2022-12-06 23:02:00 35.438 -116.788 59 ° 131 km/h 12216 m -4.9 m/s Rosamond [CA] (US) 405.301 MHz Barstow [CA] (US) 0.00 km UNKNOWN
IMET84986 iMET 2022-12-06 22:26:08 50.4003 5.56934 121 ° 30 km/h 951 m -5.1 m/s Beauvechain (BE) 403.001 MHz Durbuy (BE) 0.00 km UNKNOWN
P4530378 RS41 2022-12-06 22:22:50 40.4011 -103.052 68 ° 219 km/h 10014 m -14.3 m/s Boulder [CO] (US) 405.300 MHz Sterling [CO] (US) 0.00 km UNKNOWN
U0770509 RS41 2022-12-06 20:12:55 -33.9657 152.052 92 ° 143 km/h 14201 m -13.7 m/s Sydney (AU) 401.50 MHz Bay View (AU) 0.00 km LOST
U0620491 RS41 2022-12-06 19:29:20 60.775 25.4108 34 ° 28 km/h 611 m -15.2 m/s Jokioinen (FI) 403.000 MHz Järvelä (FI) 0.00 km UNKNOWN
ME2122E62 M10 2022-12-06 19:12:33 43.3326 23.3185 253 ° 7 km/h 650 m -2.3 m/s Niš (RS) 402.400 MHz Zamfirovo (BG) 0.00 km UNKNOWN
U2914748 RS41 2022-12-06 19:08:04 -27.3249 154.081 60 ° 83 km/h 6327 m -7.9 m/s Brisbane (AU) 401.50 MHz Mount Cotton (AU) 0.00 km LOST
T2710156 RS41 2022-12-06 18:59:17 36.9141 -95.5444 77 ° 219 km/h 11654 m -27.2 m/s 400.501 MHz Bartlesville [OK] (US) 0.00 km UNKNOWN
ME21220B0 M10 2022-12-06 18:52:15 44.6411 21.8454 98 ° 48 km/h 2971 m -13.9 m/s Belgrade (RS) 402.803 MHz Golubac (RS) 0.00 km UNKNOWN
U1470852 RS41 2022-12-06 18:50:49 51.511 15.4333 107 ° 33 km/h 804 m -8.0 m/s Lindenberg (DE) 405.100 MHz Małomice (PL) 0.00 km UNKNOWN
U1310248 RS41 2022-12-06 18:37:00 49.1771 8.30568 153 ° 7 km/h 398 m -7.0 m/s Idar-Oberstein (DE) 402.700 MHz Germersheim (DE) 0.00 km UNKNOWN
T2940445 RS41 2022-12-06 18:34:37 47.5184 12.1911 32 ° 9 km/h 1118 m -2.9 m/s Altenstadt (DE) 402.50 MHz Söll (AT) 0.00 km FOUND
U1530305 RS41 2022-12-06 17:04:54 38.9243 -76.3997 101 ° 107 km/h 14648 m -7.4 m/s Washington [VA] (US) 405.300 MHz Annapolis Neck [MD] (US) 0.00 km LOST
U3310305 RS41 2022-12-06 16:56:30 36.1942 -116.513 64 ° 93 km/h 14756 m -19.6 m/s 405.001 MHz Pahrump [NV] (US) 0.00 km UNKNOWN
ME7922043 M10 2022-12-06 16:09:49 43.2164 2.75184 103 ° 37 km/h 6732 m -13.1 m/s Toulouse (FR) 402.001 MHz Lézignan-Corbières (FR) 0.00 km UNKNOWN
ME79222B7 M10 2022-12-06 15:15:30 53.0269 18.0879 88 ° 13 km/h 586 m -9.9 m/s Świdwin (PL) 404.000 MHz Solec Kujawski (PL) 0.00 km UNKNOWN
U1510196 RS41 2022-12-06 15:06:47 51.3362 16.09 107 ° 30 km/h 379 m -1.6 m/s Lindenberg (DE) 405.10 MHz Lubin (PL) 0.00 km UNKNOWN
U4054693 RS41 2022-12-06 14:54:50 59.1582 15.7413 213 ° 26 km/h 406 m -9.4 m/s Karlskoga (SE) 404.000 MHz Vingåker (SE) 0.00 km UNKNOWN
T3130583 RS41 2022-12-06 14:40:48 44.9878 10.8895 113 ° 17 km/h 220 m -2.0 m/s Cameri (IT) 404.90 MHz Gonzaga (IT) 0.00 km UNKNOWN
U1510009 RS41 2022-12-06 14:28:51 53.5186 11.5915 124 ° 22 km/h 226 m -2.3 m/s Schleswig (DE) 402.50 MHz Schwerin (DE) 0.00 km UNKNOWN
S4440286 RS41 2022-12-06 14:26:32 43.4393 -7.14095 131 ° 13 km/h 853 m -3.4 m/s A Coruña (ES) 404.001 MHz Ribadeo (ES) 0.00 km UNKNOWN
S3150392 RS41 2022-12-06 14:18:41 46.1706 8.8925 197 ° 7 km/h 1964 m -2.8 m/s Payerne (CH) 404.50 MHz Minusio (CH) 0.00 km UNKNOWN
D22037080 DFM17 2022-12-06 14:15:09 42.0913 -85.7963 95 ° 81 km/h 3308 m -3.4 m/s Davenport [IA] (US) 403.410 MHz Portage [MI] (US) 0.00 km UNKNOWN
ME9001256 M20 2022-12-06 14:15:03 47.6988 19.1755 100 ° 39 km/h 954 m -7.0 m/s Vienna (AT) 403.501 MHz Sződ (HU) 0.00 km UNKNOWN
T4240033 RS41 2022-12-06 14:13:24 44.0872 9.53469 81 ° 35 km/h 2636 m -2.1 m/s Cuneo-Levaldigi (IT) 403.70 MHz Sestri Levante (IT) 0.00 km LOST
U3130966 RS41 2022-12-06 14:12:38 -22.4269 -43.0753 139 ° 30 km/h 2000 m -2.1 m/s Galeão (BR) 405.301 MHz Teresópolis (BR) 0.00 km UNKNOWN
U0540900 RS41 2022-12-06 14:12:35 -29.5793 -50.946 272 ° 9 km/h 645 m -1.6 m/s Porto Alegre (BR) 403.000 MHz Novo Hamburgo (BR) 0.00 km UNKNOWN
U1150459 RS41 2022-12-06 14:12:20 49.6467 12.2293 84 ° 30 km/h 671 m -2.3 m/s Meiningen (DE) 402.30 MHz Weiden in der Oberpfalz (DE) 0.00 km FOUND
ME0A224B4 M10 2022-12-06 14:09:26 48.0419 3.95484 103 ° 56 km/h 5413 m -2.8 m/s Trappes (FR) 400.999 MHz Saint-André-les-Vergers (FR) 0.00 km UNKNOWN
U3140149 RS41-SGP 2022-12-06 14:09:23 -23.0339 -46.3537 116 ° 56 km/h 1468 m -3.0 m/s São Paulo (BR) 405.301 MHz Bragança Paulista (BR) 0.00 km UNKNOWN
T3121049 RS41 2022-12-06 14:08:30 38.0847 14.3697 334 ° 11 km/h 45 m -3.6 m/s Trapani-Birgi (IT) 404.500 MHz Castelbuono (IT) 0.00 km LOST
U0210045 RS41 2022-12-06 14:08:09 49.4159 15.6142 111 ° 48 km/h 903 m -15.1 m/s Praha (CZ) 404.20 MHz Jihlava (CZ) 0.00 km UNKNOWN
U2451258 RS41-NG 2022-12-06 14:07:28 43.0018 -114.916 287 ° 7 km/h 1213 m -1.9 m/s Boise [ID] (US) 404.800 MHz Jerome [ID] (US) 0.00 km UNKNOWN
U2420901 RS41 2022-12-06 14:06:47 49.7809 -4.04852 252 ° 37 km/h 289 m -6.9 m/s Camborne (GB) 403.30 MHz Kingsbridge (GB) 0.00 km LOST
ME152296D M10 2022-12-06 14:05:59 41.6215 10.5029 277 ° 2 km/h 1232 m -3.8 m/s Ajaccio (FR) 401.002 MHz 0.00 km LOST
U0150558 RS41-SGP 2022-12-06 14:05:03 37.3396 -5.40847 117 ° 22 km/h 2710 m -3.8 m/s Huelva (ES) 402.503 MHz Marchena (ES) 0.00 km UNKNOWN
D22035392 DFM17 2022-12-06 14:04:39 39.6098 -104.876 10 ° 4 km/h 1759 m -2.6 m/s Crested Butte [CO] (US) 404.410 MHz Cherry Creek [CO] (US) 0.00 km UNKNOWN
U3360639 RS41 2022-12-06 14:02:23 52.7745 8.56051 113 ° 9 km/h 120 m -1.9 m/s Norderney (DE) 404.10 MHz Vechta (DE) 0.00 km UNKNOWN
D22042554 DFM 2022-12-06 14:02:08 35.614 -77.3408 101 ° 31 km/h 3902 m -3.2 m/s Greensboro [NC] (US) 403.400 MHz Greenville [NC] (US) 0.00 km UNKNOWN
D22037650 DFM 2022-12-06 14:01:39 32.7672 -81.8222 124 ° 63 km/h 4877 m -3.3 m/s Peachtree City [GA] (US) MHz Statesboro [GA] (US) 0.00 km UNKNOWN
U0220566 RS41 2022-12-06 13:56:55 40.3995 -2.72781 58 ° 2 km/h 1195 m -3.5 m/s Madrid (ES) 403.000 MHz Guadalajara (ES) 0.00 km UNKNOWN
S4950805 RS41 2022-12-06 13:51:49 43.3639 -2.78231 82 ° 50 km/h 8868 m -5.0 m/s Santander (ES) 401.500 MHz Munguía (ES) 0.00 km FOUND
U1631157 RS41 2022-12-06 13:49:31 35.0977 -118.934 104 ° 22 km/h 2333 m -9.5 m/s Santa Maria [CA] (US) 400.251 MHz Arvin [CA] (US) 0.00 km UNKNOWN
D22037119 DFM17 2022-12-06 13:43:06 37.0099 -78.1588 80 ° 52 km/h 4264 m -11.9 m/s Blacksburg [VA] (US) 404.011 MHz Brandermill [VA] (US) 0.00 km UNKNOWN
ME8F00688 M20 2022-12-06 13:42:30 44.5194 0.324081 168 ° 6 km/h 1242 m -5.8 m/s Bordeaux (FR) 402.802 MHz Marmande (FR) 0.00 km UNKNOWN
ME152288B M10 2022-12-06 13:41:30 48.1317 -3.17239 248 ° 33 km/h 443 m -5.6 m/s Brest (FR) 403.999 MHz Pontivy (FR) 0.00 km UNKNOWN
S0910846 RS41 2022-12-06 13:41:25 58.5689 14.8412 70 ° 89 km/h 6568 m 2.1 m/s Karlsborg (SE) 402.000 MHz Motala (SE) 0.00 km UNKNOWN
U1810333 RS41 2022-12-06 13:40:00 35.4543 -94.1395 75 ° 117 km/h 7171 m -5.6 m/s 404.201 MHz Van Buren [AR] (US) 0.00 km UNKNOWN
ME8F02060 M20 2022-12-06 13:39:10 43.4431 5.64421 144 ° 13 km/h 1520 m -10.1 m/s Nîmes (FR) 402.002 MHz Trets (FR) 0.00 km UNKNOWN
D22037256 DFM17 2022-12-06 13:38:45 32.8942 -84.2484 114 ° 56 km/h 5966 m -4.6 m/s Alabaster [AL] (US) 405.610 MHz Thomaston [GA] (US) 0.00 km UNKNOWN
U0660049 RS41 2022-12-06 13:37:22 60.4243 25.7704 65 ° 31 km/h 2129 m -14.8 m/s Jokioinen (FI) 403.000 MHz Porvoo (FI) 0.00 km UNKNOWN
S1950225 RS41 2022-12-06 13:36:32 39.2308 10.5059 97 ° 33 km/h 3232 m -3.3 m/s Decimomannu (IT) 403.50 MHz 0.00 km LOST
U1450517 RS41 2022-12-06 13:36:20 47.4143 13.5867 111 ° 15 km/h 2248 m -4.0 m/s München (DE) 402.30 MHz Schladming (AT) 0.00 km UNKNOWN
U3114535 RS41 2022-12-06 13:35:33 -15.779 -48.3167 178 ° 26 km/h 2036 m -2.9 m/s Brasilia (BR) 403.001 MHz Águas Lindas de Goiás (BR) 0.00 km UNKNOWN
U1440822 RS41 2022-12-06 13:35:15 53.3157 15.0698 60 ° 20 km/h 103 m -4.0 m/s Greifswald (DE) 402.30 MHz Stargard (PL) 0.00 km UNKNOWN
U3034894 RS41 2022-12-06 13:34:41 32.2335 -87.571 49 ° 52 km/h 2066 m -5.7 m/s 403.401 MHz Selma [AL] (US) 0.00 km UNKNOWN
ME9A00776 M20 2022-12-06 13:34:25 54.159 19.832 43 ° 13 km/h 308 m -9.3 m/s Łeba (PL) 403.601 MHz Młynary (PL) 0.00 km UNKNOWN
D22042774 DFM 2022-12-06 13:34:02 32.4721 -103.841 85 ° 65 km/h 3346 m -4.1 m/s Santa Teresa [NM] (US) MHz Carlsbad [NM] (US) 0.00 km UNKNOWN
U2750201 RS41-SG 2022-12-06 13:33:05 53.5747 -2.86812 196 ° 19 km/h 623 m -5.1 m/s Eskmeals (GB) 405.10 MHz Ormskirk (GB) 0.00 km UNKNOWN
T3030269 RS41 2022-12-06 13:33:01 41.492 14.1271 81 ° 13 km/h 1401 m -13.1 m/s Pratica di Mare (IT) 402.700 MHz Venafro (IT) 0.00 km UNKNOWN
U2260710 RS41 2022-12-06 13:32:10 48.1304 10.9114 100 ° 19 km/h 846 m -4.0 m/s Stuttgart (DE) 404.50 MHz Landsberg am Lech (DE) 0.00 km FOUND
U2110058 RS41 2022-12-06 13:32:01 45.4147 15.0949 68 ° 20 km/h 1507 m -3.8 m/s Udine-Rivolto (IT) 404.00 MHz Vrbovsko (HR) 0.00 km UNKNOWN
U4054645 RS41 2022-12-06 13:31:59 59.2638 15.7396 130 ° 19 km/h 150 m -10.2 m/s Karlskoga (SE) 400.999 MHz Arboga (SE) 0.00 km UNKNOWN
S4040793 RS41 2022-12-06 13:31:31 49.0331 22.096 8 ° 57 km/h 1476 m -17.5 m/s Poprad (SK) 400.601 MHz Snina (SK) 0.00 km UNKNOWN
U1240604 RS41 2022-12-06 13:31:31 48.9358 9.2487 124 ° 15 km/h 359 m -6.2 m/s Idar-Oberstein (DE) 402.700 MHz Ludwigsburg (DE) 0.00 km UNKNOWN
D22020518 DFM 2022-12-06 13:30:39 38.8299 -75.5587 109 ° 130 km/h 10274 m -7.8 m/s Washington [VA] (US) 400.511 MHz Milford [DE] (US) 0.00 km UNKNOWN
ME9A03563 M20 2022-12-06 13:29:27 50.72 17.9381 143 ° 17 km/h 815 m -7.9 m/s Wrocław (PL) 403.000 MHz Opole (PL) 0.00 km FOUND
U0240780 RS41 2022-12-06 13:28:55 -27.3395 -48.3578 15 ° 26 km/h 426 m -10.7 m/s Florianopolis (BR) 405.300 MHz Florianópolis (BR) 0.00 km LOST
ME9A02639 M20 2022-12-06 13:27:22 49.916 22.7381 3 ° 39 km/h 6986 m -14.4 m/s Tarnów (PL) 404.796 MHz Radymno (PL) 0.00 km UNKNOWN
U2450289 RS41-NG 2022-12-06 13:27:00 43.2656 -75.7829 37 ° 74 km/h 1618 m -11.3 m/s Buffalo [NY] (US) 403.786 MHz Oneida [NY] (US) 0.00 km UNKNOWN
U3350125 RS41 2022-12-06 13:27:00 -23.1001 -51.153 117 ° 17 km/h 700 m -3.7 m/s Londrina (BR) 403.001 MHz Cambé (BR) 0.00 km UNKNOWN
D22035623 DFM17 2022-12-06 13:26:27 45.7418 -94.7729 84 ° 94 km/h 3862 m -4.9 m/s 404.210 MHz Sartell [MN] (US) 0.00 km UNKNOWN
D22043831 DFM 2022-12-06 13:25:54 35.4862 -103.506 70 ° 204 km/h 10983 m -3.1 m/s Albuquerque [NM] (US) MHz 0.00 km UNKNOWN
D22036610 DFM17 2022-12-06 13:25:34 41.461 -97.2242 50 ° 26 km/h 1205 m -10.7 m/s North Platte [NE] (US) 403.010 MHz Columbus [NE] (US) 0.00 km UNKNOWN
D22026316 DFM 2022-12-06 13:24:57 6.23458 101.957 267 ° 17 km/h 401 m -8.6 m/s Kota Bharu (MY) 401.910 MHz 0.00 km UNKNOWN
D22028041 DFM17 2022-12-06 13:24:39 3.71117 102.988 200 ° 19 km/h 2308 m -15.6 m/s Kuantan (MY) 401.051 MHz 0.00 km UNKNOWN
T2920620 RS41 2022-12-06 13:23:32 52.1016 7.97466 186 ° 26 km/h 1607 m -5.9 m/s Meppen (DE) 404.500 MHz Lengerich (DE) 0.00 km UNKNOWN
U3320082 RS41 2022-12-06 13:23:32 47.3453 20.7882 49 ° 96 km/h 5583 m -12.2 m/s Budapest (HU) 403.200 MHz Kunmadaras (HU) 0.00 km UNKNOWN
U3350335 RS41 2022-12-06 13:23:32 50.6978 8.36003 144 ° 31 km/h 3249 m -5.7 m/s Essen (DE) 405.30 MHz Herborn (DE) 0.00 km UNKNOWN
IMS10D17E MEISEI 2022-12-06 13:23:29 1.22542 103.763 168 ° 22 km/h 2009 m -9999.0 m/s Singapore (SG) 401.903 MHz 0.00 km UNKNOWN
ME2122E5C M10 2022-12-06 13:23:29 43.1213 23.2977 84 ° 37 km/h 4440 m -9.1 m/s Niš (RS) 402.400 MHz Gara Lakatnik (BG) 0.00 km UNKNOWN
ME9622C72 M10 2022-12-06 13:23:29 43.2518 2.58989 115 ° 81 km/h 13810 m -10.0 m/s Toulouse (FR) 402.000 MHz Trèbes (FR) 0.00 km UNKNOWN
D22035324 DFM17 2022-12-06 13:23:27 46.8208 -116.022 132 ° 98 km/h 12376 m -13.5 m/s Spokane [WA] (US) 403.211 MHz Moscow [ID] (US) 0.00 km UNKNOWN
ME1622E23 M10 2022-12-06 13:23:26 37.8134 -0.212861 110 ° 48 km/h 5886 m -5.8 m/s Murcia (ES) 403.402 MHz Torrevieja (ES) 0.00 km LOST
U3024749 RS41 2022-12-06 13:23:25 39.3654 -92.7669 70 ° 67 km/h 4495 m -9.4 m/s Topeka [KS] (US) 404.001 MHz Moberly [MO] (US) 0.00 km UNKNOWN
T3950199 RS41 2022-12-06 13:23:23 -34.7377 -57.8574 92 ° 98 km/h 10376 m -23.0 m/s Ezeiza (AR) 403.500 MHz Berisso (AR) 0.00 km LOST
U4324764 RS41-SG 2022-12-06 13:23:22 42.4161 24.5519 40 ° 9 km/h 1338 m -15.5 m/s Sofia (BG) 405.301 MHz Chernogorovo (BG) 0.00 km UNKNOWN
U1710020 RS41 2022-12-06 13:23:20 -35.0716 140.281 91 ° 135 km/h 7377 m -8.6 m/s Adelaide (AU) 401.501 MHz Loxton (AU) 0.00 km UNKNOWN
D22032173 DFM 2022-12-06 13:23:19 32.4101 -78.2943 121 ° 39 km/h 7017 m -6.8 m/s Charleston [SC] (US) MHz 0.00 km LOST
U1840848 RS41 2022-12-06 13:23:17 61.3025 -148.567 59 ° 76 km/h 12270 m -13.5 m/s Anchorage [AK] (US) 405.301 MHz Anchorage [AK] (US) 0.00 km UNKNOWN
U1650769 RS41 2022-12-06 13:23:13 -37.7587 146.15 78 ° 65 km/h 5841 m -7.1 m/s Melbourne (AU) 401.500 MHz Moe (AU) 0.00 km UNKNOWN
D22043986 DFM17 2022-12-06 13:23:12 42.9682 -106.235 79 ° 148 km/h 11052 m -6.7 m/s Riverton [WY] (US) 400.811 MHz Casper [WY] (US) 0.00 km UNKNOWN
U1840686 RS41 2022-12-06 13:23:11 37.8608 -121.213 43 ° 54 km/h 6748 m -9.8 m/s Oakland [CA] (US) 404.000 MHz Manteca [CA] (US) 0.00 km UNKNOWN
U2350153 RS41 2022-12-06 13:23:04 57.7868 6.95272 163 ° 30 km/h 3425 m -14.1 m/s Stavanger (NO) 403.00 MHz Farsund (NO) 0.00 km LOST
D22036543 DFM17 2022-12-06 13:22:58 45.2492 -89.8973 80 ° 169 km/h 5944 m -5.1 m/s Chanhassen [MN] (US) 403.611 MHz Wausau [WI] (US) 0.00 km UNKNOWN
T1110518 RS41 2022-12-06 13:22:58 39.4277 3.40553 90 ° 33 km/h 7982 m -11.8 m/s Palma (ES) 402.000 MHz Son Servera (ES) 0.00 km LOST
U3114375 2022-12-06 13:22:58 -18.6341 -48.4474 264 ° 48 km/h 19688 m 3.1 m/s Uberlândia (BR) 402.900 MHz Araguari (BR) 0.00 km UNKNOWN
U2520244 RS41-SG-Ozone 2022-12-06 13:22:54 58.9901 -0.16067 116 ° 104 km/h 28814 m -28.2 m/s 403.100 MHz 0.00 km LOST
D22036528 DFM17 2022-12-06 13:22:16 27.9375 -96.2553 46 ° 126 km/h 34718 m 3.3 m/s 403.601 MHz Rockport [TX] (US) 0.00 km LOST
T4710359 RS41 2022-12-06 13:21:36 -27.4918 -58.9605 231 ° 13 km/h 135 m -15.6 m/s Resistencia (AR) 402.000 MHz Resistencia (AR) 0.00 km UNKNOWN
U0840431 RS41-SGP 2022-12-06 13:21:24 39.3256 -104.8 82 ° 37 km/h 3024 m -17.9 m/s 403.000 MHz Castle Rock [CO] (US) 0.00 km UNKNOWN
D20056431 DFM09P 2022-12-06 13:21:14 49.1612 -117.485 132 ° 96 km/h 15629 m -38.0 m/s 402.008 MHz 0.00 km UNKNOWN
T3110865 RS41 2022-12-06 13:21:09 40.1342 19.7409 74 ° 48 km/h 7676 m -11.3 m/s Galatina (IT) 403.50 MHz Himarë (AL) 0.00 km UNKNOWN
T4150040 RS41 2022-12-06 13:20:29 -33.9886 -71.082 127 ° 46 km/h 6488 m -13.9 m/s Santo Domingo (CL) 403.000 MHz Isla de Maipo (CL) 0.00 km UNKNOWN
U1721114 RS41 2022-12-06 13:18:33 44.2252 27.4606 322 ° 13 km/h 121 m -14.8 m/s Bucarest (RO) 403.921 MHz Roseţi (RO) 0.00 km UNKNOWN
D22037482 DFM17 2022-12-06 13:18:21 37.4351 -90.8614 87 ° 131 km/h 16417 m -9.1 m/s 403.011 MHz Farmington [MO] (US) 0.00 km UNKNOWN
U2220557 RS41 2022-12-06 13:14:58 44.4184 -122.209 128 ° 17 km/h 2215 m -16.8 m/s Salem [OR] (US) 401.40 MHz Sweet Home [OR] (US) 0.00 km UNKNOWN
U2730788 RS41 2022-12-06 13:14:11 46.6157 21.8574 52 ° 44 km/h 1832 m -2.9 m/s Szeged (HU) 402.300 MHz Ineu (RO) 0.00 km UNKNOWN
T1520657 RS41 2022-12-06 13:13:37 34.9298 35.1489 103 ° 94 km/h 7468 m -5.5 m/s Nicosia (CY) 403.001 MHz 0.00 km LOST
T3020987 RS41 2022-12-06 13:13:31 48.7984 13.1088 82 ° 37 km/h 1263 m -3.0 m/s Kümmersbruck (DE) 402.701 MHz Deggendorf (DE) 0.00 km UNKNOWN
U2420007 RS41 2022-12-06 13:13:06 54.3841 -1.20871 132 ° 56 km/h 6296 m -11.5 m/s Albemarle (GB) 405.100 MHz Northallerton (GB) 0.00 km UNKNOWN
U2010171 RS41-SG 2022-12-06 13:12:31 51.783 -10.6461 272 ° 37 km/h 767 m -8.4 m/s Cahersiveen (IE) 405.30 MHz Bantry (IE) 0.00 km LOST
U2430416 RS41 2022-12-06 13:12:07 38.8569 -8.4718 13 ° 7 km/h 372 m -15.1 m/s Lisbon (PT) 403.020 MHz Coruche (PT) 0.00 km UNKNOWN
ME2122A26 M10 2022-12-06 13:11:57 44.6715 21.8654 80 ° 35 km/h 2922 m -13.4 m/s Belgrade (RS) 402.801 MHz Moldova Nouă (RO) 0.00 km UNKNOWN
U0420169 RS41 2022-12-06 13:11:38 31.8646 36.1398 89 ° 81 km/h 17836 m -11.8 m/s Beit Dagan (IL) 405.301 MHz Jerusalem (IL) 0.00 km UNKNOWN
D22028691 DFM 2022-12-06 13:11:36 2.60771 101.448 66 ° 9 km/h 750 m -13.4 m/s Kuala Lumpur (MY) 401.110 MHz 0.00 km LOST
U2050034 RS41 2022-12-06 13:11:08 52.197 22.0916 4 ° 46 km/h 1889 m -15.5 m/s Legionowo (PL) 404.501 MHz Siedlce (PL) 0.00 km UNKNOWN
T2940491 RS41 2022-12-06 13:09:41 47.279 12.2318 91 ° 26 km/h 2520 m -3.8 m/s Altenstadt (DE) 402.50 MHz Neukirchen am Großvenediger (AT) 0.00 km UNKNOWN
U3340182 RS41 2022-12-06 13:08:14 45.6932 17.3281 208 ° 4 km/h 280 m -9.1 m/s Zagreb (HR) 402.00 MHz Ðulovac (HR) 0.00 km UNKNOWN
U0650374 RS41 2022-12-06 13:07:02 66.9508 27.0902 131 ° 31 km/h 15123 m -15.3 m/s Sodankyla (FI) 404.000 MHz Pelkosenniemi (FI) 0.00 km UNKNOWN
D22035406 DFM17 2022-12-06 13:02:40 47.4447 -66.5054 92 ° 50 km/h 16586 m -6.9 m/s 403.611 MHz 0.00 km UNKNOWN
S1030306 RS41 2022-12-06 13:02:33 49.15 18.1927 52 ° 31 km/h 1286 m -14.2 m/s Prostějov (CZ) 402.10 MHz Púchov (SK) 0.00 km UNKNOWN
D22041559 DFM17 2022-12-06 13:02:07 39.4926 -118.723 86 ° 78 km/h 14829 m -17.7 m/s Reno [NV] (US) 404.811 MHz Fallon [NV] (US) 0.00 km UNKNOWN
U2954204 RS41-SG 2022-12-06 13:00:24 -32.1044 117.339 108 ° 102 km/h 7383 m -9.9 m/s Perth (AU) 401.500 MHz York (AU) 0.00 km UNKNOWN
D22043051 DFM17 2022-12-06 12:59:40 40.3155 -86.9675 78 ° 202 km/h 34046 m -21.1 m/s Lincoln [IL] (US) 405.011 MHz Lafayette [IN] (US) 0.00 km UNKNOWN
D22035420 DFM 2022-12-06 12:58:43 36.1852 -84.6271 100 ° 124 km/h 9863 m -12.5 m/s MHz Harriman [TN] (US) 0.00 km UNKNOWN
D22027961 DFM 2022-12-06 12:58:04 5.27714 100.099 40 ° 15 km/h 3310 m -17.1 m/s Bayan Lepas (MY) 400.170 MHz 0.00 km LOST
T2840349 RS41 2022-12-06 12:58:01 43.9498 16.6102 76 ° 46 km/h 2194 m -12.9 m/s Zadar (HR) 403.00 MHz Civljane (HR) 0.00 km UNKNOWN
D22034746 DFM17 2022-12-06 12:55:22 5.93926 115.73 258 ° 28 km/h 11107 m -12.5 m/s Kota Kinabalu (MY) 403.711 MHz 0.00 km LOST
ME2B225C3 M10 2022-12-06 12:45:21 43.5864 6.86158 112 ° 78 km/h 14069 m -8.7 m/s St. Michel l'Observatoire (FR) 403.200 MHz Pégomas (FR) 0.00 km UNKNOWN
U3835191 RS41-SGP 2022-12-06 12:44:21 33.1891 -115.579 65 ° 120 km/h 15246 m -21.2 m/s San Diego [CA] (US) 400.650 MHz Brawley [CA] (US) 0.00 km UNKNOWN
U4435600 RS41 2022-12-06 12:43:03 44.4396 12.7111 142 ° 17 km/h 378 m -14.5 m/s San Pietro Capofiume (IT) 404.60 MHz Cervia (IT) 0.00 km LOST
T3010627 RS41-SGP 2022-12-06 12:42:04 52.4192 10.4116 146 ° 26 km/h 787 m -14.4 m/s Bergen (DE) 405.70 MHz Gifhorn (DE) 0.00 km FOUND
ME2722BB1 M10 2022-12-06 12:40:23 54.7018 17.4996 55 ° 43 km/h 2636 m -12.8 m/s Łeba (PL) 401.003 MHz Łeba (PL) 0.00 km UNKNOWN
U0210032 RS41 2022-12-06 12:32:48 49.6587 14.8954 107 ° 41 km/h 2079 m -4.8 m/s Praha (CZ) 401.10 MHz Vlašim (CZ) 0.00 km UNKNOWN
U2220735 RS41 2022-12-06 12:31:25 56.0342 3.74162 129 ° 74 km/h 11072 m -26.7 m/s Ekofisk (NO) 403.00 MHz 0.00 km LOST
T3210929 RS41 2022-12-06 12:31:06 -19.3913 -44.0819 35 ° 72 km/h 11736 m -9.9 m/s Confins (BR) 404.000 MHz Sete Lagoas (BR) 0.00 km UNKNOWN
U1420139 RS41 2022-12-06 12:29:30 38.8406 -76.2124 104 ° 69 km/h 18594 m 5.0 m/s Washington [VA] (US) 403.000 MHz Easton [MD] (US) 0.00 km LOST
MTS98C0C0 MTS01 2022-12-06 12:22:39 40.8212 29.368 101 ° 50 km/h 13150 m -9999.0 m/s Istanbul (TR) 400.995 MHz Çayırova (TR) 0.00 km UNKNOWN
U3534509 RS41 2022-12-06 12:09:49 44.7182 -63.2466 80 ° 52 km/h 12440 m 4.5 m/s Shearwater [NS] (CA) 403.001 MHz 0.00 km LOST
U4054695 RS41 2022-12-06 12:09:30 59.2512 15.6707 155 ° 19 km/h 1705 m -8.4 m/s Karlskoga (SE) 404.000 MHz Arboga (SE) 0.00 km UNKNOWN
D22040535 DFM17 2022-12-06 12:09:22 32.5358 -92.9003 97 ° 117 km/h 16121 m 5.4 m/s Shreveport [LA] (US) 403.010 MHz Ruston [LA] (US) 0.00 km UNKNOWN
U3440414 RS41 2022-12-06 12:07:36 37.7258 24.7523 105 ° 56 km/h 6878 m -22.0 m/s Athens (GR) 402.74 MHz Batsí (GR) 0.00 km LOST
T4410328 RS41 2022-12-06 11:58:28 25.0087 121.985 95 ° 167 km/h 13686 m 5.3 m/s New Taipei (TW) 400.30 MHz Keelung (TW) 0.00 km UNKNOWN
ME24221CB M10 2022-12-06 11:52:33 41.3412 2.32623 135 ° 54 km/h 12137 m 3.5 m/s Barcelona (ES) 404.000 MHz Gavá (ES) 0.00 km LOST
D21049043 DFM09P 2022-12-06 11:50:06 80.238 -86.8788 309 ° 74 km/h 11615 m 7.0 m/s Eureka [NU] (CA) 405.011 MHz 0.00 km LOST
D22041074 DFM17 2022-12-06 11:45:22 40.9109 -111.35 73 ° 148 km/h 11744 m 5.7 m/s Salt Lake City [UT] (US) 405.010 MHz Park City [UT] (US) 0.00 km UNKNOWN
D22036394 DFM 2022-12-06 11:43:19 48.5537 18.3154 81 ° 30 km/h 772 m -10.2 m/s Záhorie (SK) 403.631 MHz Bošany (SK) 0.00 km UNKNOWN
U3320547 RS41 2022-12-06 11:32:43 51.078 -1.53655 214 ° 17 km/h 2352 m -2.6 m/s Larkhill (GB) 404.40 MHz Romsey (GB) 0.00 km UNKNOWN
S0910836 RS41 2022-12-06 11:14:33 58.5956 14.9459 81 ° 96 km/h 8585 m 3.5 m/s Karlsborg (SE) 402.000 MHz Motala (SE) 0.00 km UNKNOWN
U2750217 RS41 2022-12-06 11:14:23 53.787 -3.19029 135 ° 30 km/h 6895 m -8.5 m/s Eskmeals (GB) 405.10 MHz Blackpool (GB) 0.00 km LOST
R3540338 RS41-SG 2022-12-06 11:02:50 -40.7611 175.756 82 ° 39 km/h 3987 m -17.7 m/s Paraparaumu (NZ) 400.501 MHz Eketahuna (NZ) 0.00 km UNKNOWN
U4054692 RS41-SGP 2022-12-06 10:28:05 59.1326 15.7049 186 ° 15 km/h 533 m -10.2 m/s Karlskoga (SE) 403.000 MHz Vingåker (SE) 0.00 km UNKNOWN
T2930678 RS41 2022-12-06 09:51:57 52.2397 7.81792 160 ° 11 km/h 162 m -5.4 m/s Meppen (DE) 405.100 MHz Lengerich (DE) 0.00 km FOUND
U4054640 RS41-SGP 2022-12-06 09:43:34 59.1169 15.6597 201 ° 15 km/h 489 m -10.9 m/s Karlskoga (SE) 402.000 MHz Vingåker (SE) 0.00 km UNKNOWN
IMET38262 iMET 2022-12-06 09:35:57 50.1957 6.98639 161 ° 30 km/h 2198 m -14.9 m/s Elsenborn (BE) 402.999 MHz Andernach (DE) 0.00 km UNKNOWN
U0611434 RS41 2022-12-06 09:07:48 55.8133 9.76021 156 ° 19 km/h 192 m -10.9 m/s Karup (DK) 405.30 MHz Hedensted-Løsning (DK) 0.00 km UNKNOWN
U4054623 RS41 2022-12-06 09:01:37 59.121 15.6412 199 ° 15 km/h 475 m -11.9 m/s Karlskoga (SE) 404.000 MHz Vingåker (SE) 0.00 km UNKNOWN
S0910845 RS41 2022-12-06 08:53:00 58.5732 14.9934 83 ° 61 km/h 11193 m 3.7 m/s Karlsborg (SE) 402.000 MHz Motala (SE) 0.00 km UNKNOWN
U2750203 RS41-SG 2022-12-06 08:48:16 53.7243 -3.63214 193 ° 13 km/h 361 m -2.3 m/s Eskmeals (GB) 405.10 MHz Blackpool (GB) 0.00 km LOST
U4054704 RS41-SGP 2022-12-06 08:25:00 58.9687 15.6534 177 ° 11 km/h 621 m -12.6 m/s Karlskoga (SE) 401.000 MHz Vingåker (SE) 0.00 km UNKNOWN
U4074143 RS41 2022-12-06 07:56:12 51.0284 -1.39811 213 ° 22 km/h 2257 m -3.1 m/s Larkhill (GB) 404.400 MHz Chandlers Ford (GB) 0.00 km UNKNOWN
D22036254 DFM 2022-12-06 07:39:13 48.9496 17.7248 112 ° 50 km/h 17008 m 6.1 m/s Záhorie (SK) 403.630 MHz Uherský Brod (CZ) 0.00 km UNKNOWN
U0670090 RS41 2022-12-06 07:24:24 60.5358 25.6562 86 ° 19 km/h 1729 m -16.3 m/s Jokioinen (FI) 403.000 MHz Pukkila (FI) 0.00 km UNKNOWN
U4324768 RS41 2022-12-06 07:23:00 42.3361 24.5138 45 ° 4 km/h 327 m -13.1 m/s Sofia (BG) 405.301 MHz Chernogorovo (BG) 0.00 km UNKNOWN
ME2122EDB M10 2022-12-06 07:08:00 43.0633 23.1009 103 ° 31 km/h 3067 m -14.0 m/s Niš (RS) 402.400 MHz Godech (BG) 0.00 km UNKNOWN
T2720113 RS41 2022-12-06 07:06:43 36.7788 -95.8241 87 ° 202 km/h 12134 m -31.1 m/s Lamont [OK] (US) 400.501 MHz Bartlesville [OK] (US) 0.00 km UNKNOWN
U2260687 RS41 2022-12-06 07:06:33 48.0798 10.1967 50 ° 20 km/h 743 m -4.2 m/s Stuttgart (DE) 404.50 MHz Memmingen (DE) 0.00 km UNKNOWN
U1470667 RS41 2022-12-06 07:05:13 51.8022 14.9544 90 ° 22 km/h 482 m -6.0 m/s Lindenberg (DE) 405.10 MHz Lubsko (PL) 0.00 km UNKNOWN
T2930677 RS41 2022-12-06 07:03:35 52.1677 7.93254 150 ° 15 km/h 248 m -3.7 m/s Meppen (DE) 404.500 MHz Lengerich (DE) 0.00 km UNKNOWN
ME2122A18 M10 2022-12-06 07:02:41 44.5947 21.5775 52 ° 24 km/h 1927 m -12.9 m/s Belgrade (RS) 402.801 MHz Golubac (RS) 0.00 km FOUND
T2940537 RS41 2022-12-06 06:46:38 47.3618 12.1803 91 ° 24 km/h 2205 m -3.3 m/s Altenstadt (DE) 402.50 MHz Westendorf (AT) 0.00 km UNKNOWN
T1520658 RS41 2022-12-06 06:36:03 34.8901 34.2635 131 ° 2 km/h 884 m -9.2 m/s Nicosia (CY) 403.001 MHz Agía Nápa (CY) 0.00 km LOST
U1240611 RS41 2022-12-06 06:33:05 49.2205 8.0362 95 ° 7 km/h 245 m -7.2 m/s Idar-Oberstein (DE) 402.700 MHz Landau (DE) 0.00 km UNKNOWN
ME9900419 M20 2022-12-06 06:14:51 46.0743 15.6764 169 ° 26 km/h 1277 m -9.8 m/s Ljubljana (SI) 403.201 MHz Kumrovec (HR) 0.00 km UNKNOWN
ME9900423 M20 2022-12-06 05:51:15 46.1059 15.8022 160 ° 4 km/h 287 m -8.8 m/s Ljubljana (SI) 403.000 MHz Krapinske Toplice (HR) 0.00 km UNKNOWN
S2410267 RS41 2022-12-06 05:21:27 47.4124 17.049 309 ° 4 km/h 195 m -3.5 m/s Graz (AT) 404.70 MHz Répcelak (HU) 0.00 km UNKNOWN
T2421049 RS41 2022-12-06 05:05:01 46.8427 12.6135 139 ° 59 km/h 3617 m -5.8 m/s Innsbruck (AT) 404.10 MHz Lienz (AT) 0.00 km UNKNOWN
ME91223C3 M10 2022-12-06 04:37:25 47.5089 2.64789 119 ° 56 km/h 6201 m -8.5 m/s Trainou (FR) 401.200 MHz Aubigny-sur-Nère (FR) 0.00 km UNKNOWN
T4830353 RS41 2022-12-06 04:32:23 48.1388 14.8705 109 ° 13 km/h 415 m -7.6 m/s Linz (AT) 403.40 MHz Amstetten (AT) 0.00 km UNKNOWN
U2914469 RS41-SG 2022-12-06 02:53:46 56.5892 13.9215 171 ° 9 km/h 2568 m -3.0 m/s Göteborg (SE) 405.30 MHz Älmhult (SE) 0.00 km UNKNOWN
U4145133 RS41-SG 2022-12-06 02:53:45 40.3052 18.5624 26 ° 19 km/h 1191 m -1.6 m/s Potenza (IT) 405.30 MHz Melendugno (IT) 0.00 km LOST
U0150025 RS41 2022-12-06 02:46:29 36.9337 -5.12522 94 ° 41 km/h 1943 m -2.3 m/s Huelva (ES) 402.504 MHz Alcalá del Valle (ES) 0.00 km UNKNOWN
ME8F02058 M20 2022-12-06 02:32:30 43.5787 5.5396 108 ° 41 km/h 5543 m -13.6 m/s Nîmes (FR) 402.801 MHz Venelles (FR) 0.00 km UNKNOWN
U3034071 RS41-SGP 2022-12-06 02:29:03 -23.3348 -46.2268 180 ° 11 km/h 763 m -1.8 m/s São Paulo (BR) 405.301 MHz Itaquaquecetuba (BR) 0.00 km UNKNOWN
U1030400 RS41 2022-12-06 02:25:30 52.3598 -1.05588 222 ° 44 km/h 472 m -2.0 m/s Watnall (GB) 405.500 MHz Brixworth (GB) 0.00 km UNKNOWN
T1450367 RS41 2022-12-06 02:21:55 51.3272 5.94764 162 ° 13 km/h 164 m -4.7 m/s De Bilt (NL) 403.90 MHz Helden (NL) 0.00 km FOUND
ME8F00680 M20 2022-12-06 02:21:00 44.6608 0.57846 316 ° 13 km/h 584 m -2.5 m/s Bordeaux (FR) 402.802 MHz Bergerac (FR) 0.00 km UNKNOWN
D22035755 DFM17 2022-12-06 02:20:27 39.6615 -104.204 299 ° 22 km/h 2302 m -2.5 m/s Crested Butte [CO] (US) 404.410 MHz Aurora [CO] (US) 0.00 km UNKNOWN
U2925210 RS41 2022-12-06 02:13:38 49.0021 17.8455 356 ° 44 km/h 1005 m -2.1 m/s Vienna (AT) 403.50 MHz Slavičín (CZ) 0.00 km UNKNOWN
D19026452 DFM09P 2022-12-06 02:11:45 3.28495 100.316 47 ° 11 km/h 1761 m -11.5 m/s 402.032 MHz 0.00 km LOST
T3120904 RS41 2022-12-06 02:11:38 37.9386 14.7699 21 ° 20 km/h 2083 m -2.8 m/s Trapani-Birgi (IT) 404.500 MHz Bronte (IT) 0.00 km UNKNOWN
U1440220 RS41 2022-12-06 02:10:58 53.5019 14.5055 48 ° 7 km/h 374 m -2.3 m/s Greifswald (DE) 402.300 MHz Police (PL) 0.00 km UNKNOWN
U3360528 RS41 2022-12-06 02:10:26 52.7056 7.97556 152 ° 15 km/h 94 m -2.2 m/s Norderney (DE) 404.10 MHz Cloppenburg (DE) 0.00 km UNKNOWN
U1950243 RS41 2022-12-06 02:09:30 39.8679 20.6539 114 ° 70 km/h 5706 m -2.3 m/s Galatina (IT) 403.50 MHz Kalpáki (GR) 0.00 km UNKNOWN
D20004497 DFM17 2022-12-06 02:09:15 34.9195 34.8792 98 ° 6 km/h 1295 m -2.5 m/s Nicosia (CY) 402.491 MHz Agía Nápa (CY) 0.00 km LOST
S1950219 RS41 2022-12-06 02:07:55 39.3312 11.1637 41 ° 35 km/h 3633 m -2.3 m/s Decimomannu (IT) 403.50 MHz 0.00 km LOST
T4230661 RS41 2022-12-06 02:06:20 44.2162 9.4811 63 ° 43 km/h 1472 m -2.8 m/s Cuneo-Levaldigi (IT) 403.70 MHz Sestri Levante (IT) 0.00 km LOST
ME9A02644 M20 2022-12-06 02:05:03 49.6009 23.2405 80 ° 15 km/h 2056 m -11.2 m/s Tarnów (PL) 404.796 MHz Novyi Kalyniv (UA) 0.00 km UNKNOWN
T3130586 RS41 2022-12-06 02:01:40 45.0399 11.0557 90 ° 22 km/h 55 m -4.2 m/s Cameri (IT) 404.90 MHz Concordia sulla Secchia (IT) 0.00 km UNKNOWN
IMS10CABA MEISEI 2022-12-06 01:59:45 1.21492 103.778 93 ° 11 km/h 1509 m -9999.0 m/s Singapore (SG) 401.900 MHz 0.00 km LOST
U1510010 RS41 2022-12-06 01:57:34 53.6307 9.99609 189 ° 17 km/h 62 m -1.9 m/s Schleswig (DE) 402.50 MHz Norderstedt (DE) 0.00 km UNKNOWN
U1450419 RS41 2022-12-06 01:54:51 47.8173 13.1485 83 ° 24 km/h 829 m -3.7 m/s München (DE) 402.30 MHz Koppl (AT) 0.00 km UNKNOWN
ME152288E M10 2022-12-06 01:54:26 48.2913 -3.49665 274 ° 24 km/h 284 m -4.6 m/s Brest (FR) 404.000 MHz Carhaix-Plouguer (FR) 0.00 km UNKNOWN
T3030546 RS41 2022-12-06 01:54:22 41.5484 14.7619 68 ° 20 km/h 1082 m -4.2 m/s Pratica di Mare (IT) 402.700 MHz Campobasso (IT) 0.00 km UNKNOWN
S4270394 RS41-SGP 2022-12-06 01:53:34 43.3457 -7.45407 34 ° 30 km/h 1035 m -7.0 m/s A Coruña (ES) 404.001 MHz Castro de Rey (ES) 0.00 km UNKNOWN
U2070870 RS41 2022-12-06 01:51:03 46.2006 15.7794 81 ° 6 km/h 588 m -3.9 m/s Udine-Rivolto (IT) 404.00 MHz Pregrada (HR) 0.00 km UNKNOWN
S3221575 RS41 2022-12-06 01:50:23 46.0862 9.24714 126 ° 31 km/h 2375 m -3.3 m/s Payerne (CH) 403.498 MHz Colico (IT) 0.00 km UNKNOWN
D22041447 DFM17 2022-12-06 01:49:00 41.299 -96.4341 95 ° 56 km/h 2549 m -4.5 m/s North Platte [NE] (US) 403.010 MHz Fremont [NE] (US) 0.00 km UNKNOWN
D22042762 DFM 2022-12-06 01:48:33 32.3377 -103.724 89 ° 80 km/h 4435 m -2.8 m/s Santa Teresa [NM] (US) MHz Carlsbad [NM] (US) 0.00 km UNKNOWN
U1450437 RS41-SGP 2022-12-06 01:48:27 50.4025 7.5131 132 ° 11 km/h 244 m -2.9 m/s Essen (DE) 405.30 MHz Neuwied (DE) 0.00 km UNKNOWN
U2420915 RS41 2022-12-06 01:47:46 50.0982 -4.76154 251 ° 48 km/h 84 m -5.9 m/s Camborne (GB) 403.30 MHz Falmouth (GB) 0.00 km LOST
U3044508 RS41 2022-12-06 01:46:38 32.0952 -87.1083 90 ° 61 km/h 2393 m -7.1 m/s 403.401 MHz Selma [AL] (US) 0.00 km UNKNOWN
T1110441 RS41 2022-12-06 01:46:22 39.639 3.68308 42 ° 30 km/h 6431 m -11.2 m/s Palma (ES) 402.001 MHz Capdepera (ES) 0.00 km LOST
D22037178 DFM17 2022-12-06 01:44:39 41.6057 -86.72 73 ° 57 km/h 2455 m -3.5 m/s 403.410 MHz La Porte [IN] (US) 0.00 km UNKNOWN
S4040813 RS41 2022-12-06 01:44:11 48.716 22.4185 1 ° 19 km/h 954 m -13.5 m/s Poprad (SK) 400.601 MHz Perechyn (UA) 0.00 km UNKNOWN
U2270648 RS41 2022-12-06 01:43:58 49.9906 11.2386 78 ° 28 km/h 965 m -3.8 m/s Meiningen (DE) 402.30 MHz Kulmbach (DE) 0.00 km UNKNOWN
D22037116 DFM17 2022-12-06 01:42:41 36.8938 -77.6338 20 ° 26 km/h 850 m -5.1 m/s Blacksburg [VA] (US) 404.011 MHz Petersburg [VA] (US) 0.00 km UNKNOWN
U1030514 RS41 2022-12-06 01:41:39 53.9486 -6.52718 229 ° 37 km/h 13801 m -10.7 m/s Castor Bay (IE) 403.90 MHz Dundalk (IE) 0.00 km UNKNOWN
D22042582 DFM 2022-12-06 01:39:46 35.6823 -77.2606 14 ° 39 km/h 1143 m -4.8 m/s Greensboro [NC] (US) MHz Greenville [NC] (US) 0.00 km UNKNOWN
U0660234 RS41 2022-12-06 01:35:47 60.3753 25.8767 72 ° 24 km/h 1389 m -14.2 m/s Jokioinen (FI) 403.000 MHz Porvoo (FI) 0.00 km UNKNOWN
U0550008 RS41 2022-12-06 01:34:13 -29.7847 -50.9376 288 ° 24 km/h 291 m -4.6 m/s Porto Alegre (BR) 403.001 MHz Gravataí (BR) 0.00 km UNKNOWN
U2450300 RS41 2022-12-06 01:34:00 43.1168 -75.8776 39 ° 50 km/h 1164 m -4.7 m/s Buffalo [NY] (US) 403.786 MHz Oneida [NY] (US) 0.00 km UNKNOWN
U0240771 RS41-SGP 2022-12-06 01:31:18 -27.4279 -48.1104 347 ° 13 km/h 17 m -8.5 m/s Florianopolis (BR) 405.300 MHz Florianópolis (BR) 0.00 km LOST
ME1522969 M10 2022-12-06 01:30:23 41.7634 10.3531 54 ° 20 km/h 1623 m -14.6 m/s Ajaccio (FR) 400.998 MHz Porto-Vecchio (FR) 0.00 km LOST
U2420314 RS41 2022-12-06 01:28:57 48.1978 10.4231 77 ° 26 km/h 671 m -4.2 m/s Stuttgart (DE) 404.50 MHz Memmingen (DE) 0.00 km UNKNOWN
U1710014 RS41-SG 2022-12-06 01:28:38 -34.8413 139.969 85 ° 37 km/h 2907 m -7.1 m/s Adelaide (AU) 401.501 MHz Mannum (AU) 0.00 km UNKNOWN
D22035485 DFM 2022-12-06 01:28:14 35.9715 -83.756 99 ° 83 km/h 6052 m -2.3 m/s MHz Seymour [TN] (US) 0.00 km UNKNOWN
ME9A03573 M20 2022-12-06 01:27:58 51.0434 17.7161 182 ° 6 km/h 533 m -6.9 m/s Wrocław (PL) 403.000 MHz Namysłów (PL) 0.00 km FOUND
D22036580 DFM17 2022-12-06 01:27:32 44.9457 -89.5356 80 ° 124 km/h 4890 m -3.3 m/s Chanhassen [MN] (US) 403.610 MHz Weston [WI] (US) 0.00 km UNKNOWN
U3130972 RS41 2022-12-06 01:27:19 -22.4692 -43.1344 194 ° 35 km/h 1469 m -4.3 m/s Galeão (BR) 405.301 MHz Petrópolis (BR) 0.00 km UNKNOWN
D22027998 DFM 2022-12-06 01:26:42 5.28075 100.091 333 ° 13 km/h 3218 m -13.0 m/s Bayan Lepas (MY) 400.170 MHz 0.00 km LOST
S4250687 RS41 2022-12-06 01:26:05 54.7525 24.9592 333 ° 19 km/h 186 m -12.3 m/s Kaunas (LT) 401.000 MHz Vievis (LT) 0.00 km UNKNOWN
U0230102 RS41 2022-12-06 01:26:01 40.5372 -3.07469 291 ° 9 km/h 1009 m -16.9 m/s Madrid (ES) 403.000 MHz Guadalajara (ES) 0.00 km FOUND
U2450583 RS41 2022-12-06 01:24:33 43.2237 -114.807 122 ° 26 km/h 1912 m -9.0 m/s Boise [ID] (US) 404.800 MHz Hailey [ID] (US) 0.00 km UNKNOWN
U1470637 RS41 2022-12-06 01:23:08 51.7721 15.6986 89 ° 22 km/h 628 m -6.0 m/s Lindenberg (DE) 405.100 MHz Nowa Sól (PL) 0.00 km UNKNOWN
ME9A00782 M20 2022-12-06 01:22:46 54.3334 18.8924 306 ° 15 km/h 43 m -10.1 m/s Łeba (PL) 403.604 MHz Gdańsk (PL) 0.00 km UNKNOWN
U2210186 RS41 2022-12-06 01:22:15 50.4883 0.75678 261 ° 11 km/h 97 m -5.3 m/s Herstmonceux (GB) 405.80 MHz Hastings (GB) 0.00 km LOST
U2220858 RS41 2022-12-06 01:21:22 44.3253 -122.819 29 ° 13 km/h 1770 m -8.1 m/s Salem [OR] (US) 401.401 MHz Sweet Home [OR] (US) 0.00 km UNKNOWN
U3054854 RS41 2022-12-06 01:20:58 -15.6812 -48.3048 204 ° 19 km/h 1671 m -2.8 m/s Brasilia (BR) 403.001 MHz Águas Lindas de Goiás (BR) 0.00 km UNKNOWN
U1310133 RS41 2022-12-06 01:20:36 48.9008 8.34418 29 ° 11 km/h 208 m -10.3 m/s Idar-Oberstein (DE) 402.700 MHz Ettlingen (DE) 0.00 km UNKNOWN
D22028957 DFM 2022-12-06 01:20:19 2.63143 101.581 306 ° 20 km/h 530 m -13.6 m/s Kuala Lumpur (MY) 401.110 MHz 0.00 km LOST
S5010182 RS41 2022-12-06 01:20:04 43.4361 -3.14212 60 ° 67 km/h 8540 m -22.0 m/s Santander (ES) 401.500 MHz Castro-Urdiales (ES) 0.00 km LOST
U1810330 RS41 2022-12-06 01:20:00 35.2087 -94.6528 92 ° 180 km/h 15396 m -8.5 m/s Norman [OK] (US) 404.201 MHz Fort Smith [AR] (US) 0.00 km UNKNOWN
U1650225 RS41 2022-12-06 01:19:43 -37.5031 145.433 331 ° 13 km/h 532 m -5.6 m/s Melbourne (AU) 401.500 MHz Yarra Glen (AU) 0.00 km UNKNOWN
D20056304 DFM09P 2022-12-06 01:19:36 49.0731 -117.569 139 ° 93 km/h 4326 m -14.8 m/s 402.007 MHz 0.00 km UNKNOWN
U2010173 RS41-SG 2022-12-06 01:17:21 51.7995 -10.6024 295 ° 56 km/h 1347 m -14.3 m/s Cahersiveen (IE) 405.30 MHz Bantry (IE) 0.00 km LOST
U3320013 RS41 2022-12-06 01:15:59 47.2578 20.617 353 ° 48 km/h 593 m -15.1 m/s Budapest (HU) 403.200 MHz Kenderes (HU) 0.00 km UNKNOWN
U2510911 RS41 2022-12-06 01:15:38 39.1037 -93.043 129 ° 17 km/h 1909 m -7.8 m/s Topeka [KS] (US) 404.001 MHz Marshall [MO] (US) 0.00 km UNKNOWN
D22036624 DFM17 2022-12-06 01:15:09 32.8917 -84.3698 102 ° 89 km/h 5948 m -9.7 m/s Alabaster [AL] (US) 405.610 MHz Thomaston [GA] (US) 0.00 km UNKNOWN
D22041647 DFM17 2022-12-06 01:14:45 39.3177 -81.0587 87 ° 119 km/h 7173 m -8.1 m/s 403.810 MHz Marietta [OH] (US) 0.00 km UNKNOWN
U1820472 RS41 2022-12-06 01:13:17 61.526 -148.618 23 ° 94 km/h 5758 m -13.4 m/s Anchorage [AK] (US) 405.301 MHz Tanaina [AK] (US) 0.00 km UNKNOWN
D22035901 DFM17 2022-12-06 01:12:05 45.3627 -95.308 92 ° 100 km/h 5697 m -11.4 m/s 404.210 MHz Willmar [MN] (US) 0.00 km UNKNOWN
D22041170 DFM17 2022-12-06 01:10:04 39.6147 -118.183 74 ° 117 km/h 13082 m -16.9 m/s 404.811 MHz Fallon [NV] (US) 0.00 km UNKNOWN
ME1622E08 M10 2022-12-06 01:09:51 38.0913 -0.46678 30 ° 26 km/h 1800 m -10.8 m/s Murcia (ES) 403.403 MHz Santa Pola (ES) 0.00 km LOST
U3014145 RS41-SG 2022-12-06 01:08:30 -32.0668 117.631 97 ° 165 km/h 8908 m -12.2 m/s Perth (AU) 401.500 MHz York (AU) 0.00 km UNKNOWN
U2060747 RS41 2022-12-06 01:08:00 52.1423 22.0697 46 ° 17 km/h 962 m -13.0 m/s Legionowo (PL) 404.50 MHz Siedlce (PL) 0.00 km UNKNOWN
U3554711 RS41 2022-12-06 01:08:00 39.4711 -104.258 79 ° 85 km/h 5080 m -6.5 m/s 403.000 MHz The Pinery [CO] (US) 0.00 km UNKNOWN
U2914666 RS41 2022-12-06 01:07:24 -27.6493 153.755 102 ° 69 km/h 6933 m -10.3 m/s Brisbane (AU) 401.50 MHz Southport (AU) 0.00 km LOST
U2350227 RS41-SG 2022-12-06 01:07:10 59.1151 -0.15574 135 ° 154 km/h 29879 m 4.7 m/s 403.100 MHz 0.00 km LOST
U1420135 RS41 2022-12-06 01:06:41 38.8285 -75.3467 76 ° 24 km/h 20259 m -18.8 m/s Washington [VA] (US) 403.000 MHz Milford [DE] (US) 0.00 km UNKNOWN
T3010650 RS41 2022-12-06 01:06:33 52.3066 10.1211 91 ° 24 km/h 242 m -3.0 m/s Bergen (DE) 405.70 MHz Peine (DE) 0.00 km FOUND
D22043816 DFM17 2022-12-06 01:06:16 42.9996 -106.234 83 ° 174 km/h 12599 m -14.0 m/s Riverton [WY] (US) 400.811 MHz Casper [WY] (US) 0.00 km UNKNOWN
U2350156 RS41 2022-12-06 01:06:04 57.9677 6.76985 153 ° 31 km/h 1672 m -10.8 m/s Stavanger (NO) 403.00 MHz Farsund (NO) 0.00 km LOST
U0210031 RS41 2022-12-06 01:05:58 49.8157 15.1501 176 ° 19 km/h 1505 m -15.3 m/s Praha (CZ) 401.100 MHz Kutná Hora (CZ) 0.00 km UNKNOWN
D22035356 DFM17 2022-12-06 01:05:56 46.8512 -116.333 128 ° 46 km/h 4332 m -11.7 m/s Spokane [WA] (US) 403.211 MHz Moscow [ID] (US) 0.00 km UNKNOWN
ME2122E64 M10 2022-12-06 01:05:56 42.9535 23.0414 64 ° 9 km/h 2224 m -14.4 m/s Niš (RS) 402.400 MHz Godech (BG) 0.00 km UNKNOWN
U1730084 RS41 2022-12-06 01:05:51 44.0877 27.502 314 ° 24 km/h 350 m -13.4 m/s Bucarest (RO) 403.921 MHz Ostrov (RO) 0.00 km UNKNOWN
D22034708 DFM17 2022-12-06 01:05:45 5.88826 115.788 274 ° 48 km/h 13029 m -18.4 m/s Kota Kinabalu (MY) 403.711 MHz 0.00 km LOST
D22026349 DFM 2022-12-06 01:05:17 6.10079 101.97 290 ° 11 km/h 1599 m -9.6 m/s Kota Bharu (MY) 401.910 MHz 0.00 km UNKNOWN
MTS98BE02 MTS01 2022-12-06 01:04:59 40.6746 29.888 233 ° 13 km/h 648 m -9999.0 m/s Istanbul (TR) 401.000 MHz Bahçecik (TR) 0.00 km UNKNOWN
U4334868 RS41 2022-12-06 01:04:58 44.5585 12.8791 84 ° 117 km/h 7448 m -15.5 m/s San Pietro Capofiume (IT) 404.60 MHz Cervia (IT) 0.00 km LOST
U2730695 RS41 2022-12-06 01:04:50 46.0007 21.3253 337 ° 33 km/h 362 m -12.2 m/s Szeged (HU) 402.300 MHz Vladimirescu (RO) 0.00 km FOUND
D22036609 DFM17 2022-12-06 01:04:12 27.8292 -96.3514 95 ° 72 km/h 12606 m -6.6 m/s Corpus Christi [TX] (US) 403.601 MHz Rockport [TX] (US) 0.00 km LOST
D22031665 DFM 2022-12-06 01:03:26 32.1896 -78.124 119 ° 94 km/h 7948 m -3.8 m/s Charleston [SC] (US) MHz 0.00 km LOST
U1720348 RS41-SG 2022-12-06 01:03:06 -33.0149 152.611 90 ° 93 km/h 6264 m -10.5 m/s Williamtown (AU) 402.501 MHz Nelson Bay (AU) 0.00 km LOST
ME21220BD M10 2022-12-06 01:02:55 44.4806 21.595 301 ° 41 km/h 785 m -11.4 m/s Belgrade (RS) 402.801 MHz Kučevo (RS) 0.00 km FOUND
T4720002 RS41-SG 2022-12-06 01:01:54 59.1228 25.9896 17 ° 26 km/h 483 m -15.1 m/s Tallinn (EE) 404.600 MHz Tamsalu (EE) 0.00 km UNKNOWN
S1040904 RS41 2022-12-06 01:00:41 49.3922 18.0496 335 ° 31 km/h 1045 m -14.8 m/s Prostějov (CZ) 402.10 MHz Vsetín (CZ) 0.00 km UNKNOWN
ME9A00680 M20 2022-12-06 01:00:27 43.8195 5.3269 89 ° 4 km/h 910 m -2.4 m/s Nîmes (FR) 402.002 MHz Apt (FR) 0.00 km UNKNOWN
U3534806 RS41 2022-12-06 00:57:13 45.8874 17.0875 108 ° 19 km/h 319 m -11.0 m/s Zagreb (HR) 402.00 MHz Šandrovac (HR) 0.00 km FOUND
D22043862 DFM 2022-12-06 00:56:39 35.2591 -104.27 70 ° 156 km/h 9529 m -8.6 m/s Albuquerque [NM] (US) MHz Las Vegas [NM] (US) 0.00 km UNKNOWN
U1730555 RS41 2022-12-06 00:55:01 40.1499 24.1759 128 ° 22 km/h 2766 m -11.4 m/s Thessaloniki (GR) 403.001 MHz Néos Marmarás (GR) 0.00 km LOST
U2420067 RS41 2022-12-06 00:54:39 54.5499 -1.95696 181 ° 24 km/h 6808 m -13.2 m/s Albemarle (GB) 405.100 MHz Barnard Castle (GB) 0.00 km UNKNOWN
U1631184 RS41 2022-12-06 00:54:23 35.1845 -118.93 137 ° 37 km/h 2581 m -7.7 m/s Santa Maria [CA] (US) 400.251 MHz Lamont [CA] (US) 0.00 km UNKNOWN
U0650375 RS41 2022-12-06 00:54:22 67.141 27.4861 121 ° 30 km/h 13723 m -28.5 m/s Sodankyla (FI) 404.000 MHz Pelkosenniemi (FI) 0.00 km UNKNOWN
U1840644 RS41-SGP 2022-12-06 00:53:35 37.9918 -120.782 338 ° 4 km/h 427 m -6.5 m/s Oakland [CA] (US) 404.000 MHz Oakdale [CA] (US) 0.00 km UNKNOWN
U2510100 RS41 2022-12-06 00:49:47 32.596 -109.29 106 ° 104 km/h 31020 m 2.1 m/s Tucson [AZ] (US) 405.201 MHz Safford [AZ] (US) 0.00 km UNKNOWN
U2750118 RS41 2022-12-06 00:49:30 -31.3823 146.446 172 ° 33 km/h 18536 m -23.6 m/s Cobar (AU) 401.500 MHz Cobar (AU) 0.00 km UNKNOWN
T2840351 RS41 2022-12-06 00:48:39 44.0543 16.3914 21 ° 39 km/h 1914 m -11.8 m/s Zadar (HR) 403.00 MHz Kijevo (HR) 0.00 km UNKNOWN
U2250788 RS41-SGP 2022-12-06 00:48:31 56.0173 3.30355 147 ° 30 km/h 12206 m -35.6 m/s Ekofisk (NO) 403.00 MHz 0.00 km LOST
U3450391 RS41 2022-12-06 00:45:12 33.1736 -115.521 68 ° 102 km/h 15896 m -34.4 m/s San Diego [CA] (US) 400.650 MHz Brawley [CA] (US) 0.00 km UNKNOWN
T3030111 RS41 2022-12-06 00:41:29 49.2799 12.355 88 ° 19 km/h 567 m -7.5 m/s Kümmersbruck (DE) 402.70 MHz Schwandorf (DE) 0.00 km UNKNOWN
D22035597 DFM17 2022-12-06 00:39:39 47.4319 -66.5983 54 ° 70 km/h 18547 m -16.8 m/s 403.611 MHz 0.00 km UNKNOWN
T3230788 RS41-SGP 2022-12-06 00:30:58 -19.2359 -44.0863 17 ° 72 km/h 11501 m -7.8 m/s Confins (BR) 404.000 MHz Sete Lagoas (BR) 0.00 km UNKNOWN
D22033448 DFM17 2022-12-06 00:11:51 40.0951 -87.6195 94 ° 72 km/h 18663 m 4.3 m/s 405.010 MHz Danville [IL] (US) 0.00 km UNKNOWN
D22037591 DFM17 2022-12-06 00:06:58 37.2495 -92.0179 80 ° 80 km/h 20091 m 4.1 m/s 403.011 MHz Fort Leonard Wood [MO] (US) 0.00 km UNKNOWN
ME24221F1 M10 2022-12-06 00:04:39 41.4674 2.54232 78 ° 33 km/h 14083 m 3.2 m/s Barcelona (ES) 403.999 MHz Mataró (ES) 0.00 km LOST
D21011486 DFM09P 2022-12-05 23:55:16 80.2961 -86.0539 22 ° 117 km/h 9575 m 4.1 m/s Eureka [NU] (CA) 404.011 MHz 0.00 km UNKNOWN
IMET89011 iMET 2022-12-05 23:48:35 50.3018 5.0674 120 ° 46 km/h 11426 m -10.6 m/s Beauvechain (BE) 403.000 MHz Ciney (BE) 0.00 km UNKNOWN
D22041461 DFM17 2022-12-05 23:48:05 32.4774 -93.0408 97 ° 120 km/h 14409 m 6.5 m/s Shreveport [LA] (US) 403.010 MHz Minden [LA] (US) 0.00 km UNKNOWN
U3534518 RS41 2022-12-05 23:42:27 44.6809 -63.3168 53 ° 85 km/h 8093 m 6.9 m/s Shearwater [NS] (CA) 402.001 MHz 0.00 km LOST
T4410272 RS41 2022-12-05 23:38:50 25.05 121.81 95 ° 165 km/h 11000 m 6.0 m/s New Taipei (TW) 400.30 MHz Keelung (TW) 0.00 km UNKNOWN
D22041189 DFM17 2022-12-05 23:33:29 40.917 -111.452 73 ° 198 km/h 9933 m 5.1 m/s Salt Lake City [UT] (US) 405.010 MHz Park City [UT] (US) 0.00 km UNKNOWN
T0920721 RS41-SG 2022-12-05 23:13:49 -40.8946 175.937 68 ° 46 km/h 2731 m -14.4 m/s Paraparaumu (NZ) 400.501 MHz Masterton (NZ) 0.00 km UNKNOWN
U0770507 RS41 2022-12-05 20:13:32 -34.1232 151.761 104 ° 107 km/h 12522 m -11.3 m/s Sydney (AU) 401.50 MHz Sydney (AU) 0.00 km LOST
U3310306 RS41 2022-12-05 19:46:30 36.2849 -116.198 63 ° 98 km/h 17635 m -19.5 m/s 405.001 MHz Pahrump [NV] (US) 0.00 km UNKNOWN
U1470848 RS41 2022-12-05 19:42:36 52.1156 15.2983 58 ° 22 km/h 366 m -2.5 m/s Lindenberg (DE) 405.100 MHz Czerwieńsk (PL) 0.00 km UNKNOWN
U1830178 RS41-SGP 2022-12-05 19:38:13 61.3682 -148.723 31 ° 83 km/h 5842 m -16.9 m/s Anchorage [AK] (US) 405.301 MHz Anchorage [AK] (US) 0.00 km UNKNOWN
U0670108 RS41 2022-12-05 19:26:39 60.1804 25.3106 64 ° 65 km/h 4971 m -12.7 m/s Jokioinen (FI) 403.000 MHz Vantaa (FI) 0.00 km UNKNOWN
U2914359 RS41 2022-12-05 19:25:30 -27.5338 153.785 66 ° 37 km/h 1186 m -7.3 m/s Brisbane (AU) 401.50 MHz Mount Cotton (AU) 0.00 km LOST
ME21220C8 M10 2022-12-05 19:07:19 44.4746 21.5581 326 ° 35 km/h 799 m -13.6 m/s Belgrade (RS) 402.801 MHz Kučevo (RS) 0.00 km FOUND
ME2122E66 M10 2022-12-05 18:57:23 43.0165 22.93 28 ° 19 km/h 1981 m -10.9 m/s Niš (RS) 402.398 MHz Godech (BG) 0.00 km UNKNOWN
T2940490 RS41 2022-12-05 18:49:03 48.184 11.8855 105 ° 30 km/h 655 m -2.1 m/s Altenstadt (DE) 402.50 MHz Vaterstetten (DE) 0.00 km UNKNOWN
U1230804 RS41 2022-12-05 18:43:48 49.3136 7.75391 56 ° 26 km/h 692 m -3.3 m/s Idar-Oberstein (DE) 402.700 MHz Kaiserslautern (DE) 0.00 km UNKNOWN
U1520141 RS41 2022-12-05 17:40:04 40.495 -111.621 70 ° 74 km/h 4254 m -10.3 m/s Salt Lake City [UT] (US) 405.300 MHz Alpine [UT] (US) 0.00 km UNKNOWN
ME89227E5 M10 2022-12-05 16:49:00 43.5017 3.2356 69 ° 39 km/h 3702 m -3.6 m/s Toulouse (FR) 402.401 MHz Servian (FR) 0.00 km UNKNOWN